<?xml version="1.0" encoding="UTF-8" standalone="no" ?>
<gpx xmlns="http://www.topografix.com/GPX/1/1" xmlns:xsi="http://www.w3.org/2001/XMLSchema-instance" xsi:schemaLocation="http://www.topografix.com/GPX/1/1 http://www.topografix.com/GPX/1/1/gpx.xsd" version="1.1" creator="VisuGPX - https://www.visugpx.com">
  <metadata>
    <name>St Ay Vévres</name>
    <desc><![CDATA[Rando le long de la Loire sur la vélo route 
hub03grorl]]></desc>
  </metadata>
  <trk>
    <name><![CDATA[Toaster Course]]></name>
    <trkseg>
      <trkpt lat="47.85879" lon="1.75404">
        <ele>98</ele>
        <time>2013-03-20T00:00:00Z</time>
      </trkpt>
      <trkpt lat="47.85889" lon="1.75388">
        <ele>98</ele>
        <time>2013-03-20T00:00:02Z</time>
      </trkpt>
      <trkpt lat="47.85926" lon="1.75452">
        <ele>98</ele>
        <time>2013-03-20T00:00:11Z</time>
      </trkpt>
      <trkpt lat="47.86035" lon="1.75687">
        <ele>101</ele>
        <time>2013-03-20T00:00:42Z</time>
      </trkpt>
      <trkpt lat="47.86105" lon="1.75866">
        <ele>101</ele>
        <time>2013-03-20T00:01:00Z</time>
      </trkpt>
      <trkpt lat="47.86115" lon="1.75901">
        <ele>101</ele>
        <time>2013-03-20T00:01:04Z</time>
      </trkpt>
      <trkpt lat="47.86116" lon="1.75927">
        <ele>101</ele>
        <time>2013-03-20T00:01:07Z</time>
      </trkpt>
      <trkpt lat="47.86128" lon="1.75935">
        <ele>101</ele>
        <time>2013-03-20T00:01:09Z</time>
      </trkpt>
      <trkpt lat="47.86153" lon="1.75996">
        <ele>102</ele>
        <time>2013-03-20T00:01:17Z</time>
      </trkpt>
      <trkpt lat="47.86294" lon="1.76355">
        <ele>103</ele>
        <time>2013-03-20T00:01:56Z</time>
      </trkpt>
      <trkpt lat="47.86382" lon="1.76602">
        <ele>103</ele>
        <time>2013-03-20T00:02:21Z</time>
      </trkpt>
      <trkpt lat="47.86455" lon="1.76835">
        <ele>103</ele>
        <time>2013-03-20T00:02:45Z</time>
      </trkpt>
      <trkpt lat="47.86567" lon="1.77144">
        <ele>103</ele>
        <time>2013-03-20T00:03:16Z</time>
      </trkpt>
      <trkpt lat="47.86971" lon="1.78358">
        <ele>101</ele>
        <time>2013-03-20T00:05:17Z</time>
      </trkpt>
      <trkpt lat="47.87213" lon="1.78956">
        <ele>104</ele>
        <time>2013-03-20T00:06:27Z</time>
      </trkpt>
      <trkpt lat="47.87288" lon="1.79168">
        <ele>99</ele>
        <time>2013-03-20T00:06:49Z</time>
      </trkpt>
      <trkpt lat="47.87393" lon="1.79442">
        <ele>98</ele>
        <time>2013-03-20T00:07:17Z</time>
      </trkpt>
      <trkpt lat="47.87648" lon="1.80172">
        <ele>103</ele>
        <time>2013-03-20T00:08:43Z</time>
      </trkpt>
      <trkpt lat="47.87749" lon="1.80437">
        <ele>103</ele>
        <time>2013-03-20T00:09:10Z</time>
      </trkpt>
      <trkpt lat="47.87749" lon="1.8045">
        <ele>103</ele>
        <time>2013-03-20T00:09:11Z</time>
      </trkpt>
      <trkpt lat="47.87775" lon="1.80519">
        <ele>103</ele>
        <time>2013-03-20T00:09:20Z</time>
      </trkpt>
      <trkpt lat="47.8777" lon="1.80537">
        <ele>103</ele>
        <time>2013-03-20T00:09:22Z</time>
      </trkpt>
      <trkpt lat="47.87773" lon="1.80554">
        <ele>103</ele>
        <time>2013-03-20T00:09:24Z</time>
      </trkpt>
      <trkpt lat="47.87781" lon="1.80563">
        <ele>104</ele>
        <time>2013-03-20T00:09:25Z</time>
      </trkpt>
      <trkpt lat="47.8779" lon="1.80566">
        <ele>103</ele>
        <time>2013-03-20T00:09:27Z</time>
      </trkpt>
      <trkpt lat="47.87863" lon="1.80735">
        <ele>103</ele>
        <time>2013-03-20T00:09:45Z</time>
      </trkpt>
      <trkpt lat="47.88202" lon="1.81628">
        <ele>104</ele>
        <time>2013-03-20T00:11:19Z</time>
      </trkpt>
      <trkpt lat="47.88338" lon="1.82022">
        <ele>104</ele>
        <time>2013-03-20T00:11:59Z</time>
      </trkpt>
      <trkpt lat="47.88494" lon="1.82426">
        <ele>101</ele>
        <time>2013-03-20T00:12:40Z</time>
      </trkpt>
      <trkpt lat="47.8873" lon="1.83081">
        <ele>95</ele>
        <time>2013-03-20T00:13:47Z</time>
      </trkpt>
      <trkpt lat="47.88923" lon="1.83619">
        <ele>104</ele>
        <time>2013-03-20T00:15:03Z</time>
      </trkpt>
      <trkpt lat="47.88937" lon="1.83675">
        <ele>104</ele>
        <time>2013-03-20T00:15:09Z</time>
      </trkpt>
      <trkpt lat="47.88972" lon="1.83775">
        <ele>105</ele>
        <time>2013-03-20T00:15:21Z</time>
      </trkpt>
      <trkpt lat="47.89138" lon="1.84236">
        <ele>108</ele>
        <time>2013-03-20T00:16:15Z</time>
      </trkpt>
      <trkpt lat="47.8915" lon="1.84271">
        <ele>108</ele>
        <time>2013-03-20T00:16:19Z</time>
      </trkpt>
      <trkpt lat="47.89149" lon="1.84282">
        <ele>108</ele>
        <time>2013-03-20T00:16:20Z</time>
      </trkpt>
      <trkpt lat="47.89157" lon="1.84289">
        <ele>108</ele>
        <time>2013-03-20T00:16:21Z</time>
      </trkpt>
      <trkpt lat="47.89229" lon="1.84489">
        <ele>108</ele>
        <time>2013-03-20T00:16:41Z</time>
      </trkpt>
      <trkpt lat="47.89254" lon="1.84568">
        <ele>108</ele>
        <time>2013-03-20T00:16:50Z</time>
      </trkpt>
      <trkpt lat="47.89307" lon="1.84784">
        <ele>110</ele>
        <time>2013-03-20T00:17:15Z</time>
      </trkpt>
      <trkpt lat="47.89348" lon="1.84922">
        <ele>111</ele>
        <time>2013-03-20T00:17:30Z</time>
      </trkpt>
      <trkpt lat="47.89348" lon="1.84948">
        <ele>110</ele>
        <time>2013-03-20T00:17:33Z</time>
      </trkpt>
      <trkpt lat="47.89355" lon="1.84957">
        <ele>110</ele>
        <time>2013-03-20T00:17:34Z</time>
      </trkpt>
      <trkpt lat="47.89362" lon="1.84999">
        <ele>110</ele>
        <time>2013-03-20T00:17:38Z</time>
      </trkpt>
      <trkpt lat="47.89433" lon="1.85275">
        <ele>108</ele>
        <time>2013-03-20T00:18:04Z</time>
      </trkpt>
      <trkpt lat="47.89462" lon="1.85375">
        <ele>107</ele>
        <time>2013-03-20T00:18:14Z</time>
      </trkpt>
      <trkpt lat="47.89499" lon="1.85517">
        <ele>107</ele>
        <time>2013-03-20T00:18:28Z</time>
      </trkpt>
      <trkpt lat="47.8953" lon="1.85654">
        <ele>109</ele>
        <time>2013-03-20T00:18:46Z</time>
      </trkpt>
      <trkpt lat="47.8955" lon="1.85749">
        <ele>107</ele>
        <time>2013-03-20T00:18:54Z</time>
      </trkpt>
      <trkpt lat="47.89569" lon="1.85868">
        <ele>106</ele>
        <time>2013-03-20T00:19:05Z</time>
      </trkpt>
      <trkpt lat="47.896" lon="1.86025">
        <ele>104</ele>
        <time>2013-03-20T00:19:20Z</time>
      </trkpt>
      <trkpt lat="47.89694" lon="1.86552">
        <ele>97</ele>
        <time>2013-03-20T00:20:09Z</time>
      </trkpt>
      <trkpt lat="47.89727" lon="1.86719">
        <ele>100</ele>
        <time>2013-03-20T00:20:32Z</time>
      </trkpt>
      <trkpt lat="47.89803" lon="1.87047">
        <ele>105</ele>
        <time>2013-03-20T00:21:15Z</time>
      </trkpt>
      <trkpt lat="47.89864" lon="1.87381">
        <ele>108</ele>
        <time>2013-03-20T00:21:53Z</time>
      </trkpt>
      <trkpt lat="47.89834" lon="1.87497">
        <ele>106</ele>
        <time>2013-03-20T00:22:04Z</time>
      </trkpt>
      <trkpt lat="47.89797" lon="1.87614">
        <ele>104</ele>
        <time>2013-03-20T00:22:16Z</time>
      </trkpt>
      <trkpt lat="47.89792" lon="1.87657">
        <ele>103</ele>
        <time>2013-03-20T00:22:20Z</time>
      </trkpt>
      <trkpt lat="47.89795" lon="1.88444">
        <ele>96</ele>
        <time>2013-03-20T00:23:30Z</time>
      </trkpt>
      <trkpt lat="47.89791" lon="1.88473">
        <ele>95</ele>
        <time>2013-03-20T00:23:33Z</time>
      </trkpt>
      <trkpt lat="47.89789" lon="1.8864">
        <ele>95</ele>
        <time>2013-03-20T00:23:48Z</time>
      </trkpt>
      <trkpt lat="47.89793" lon="1.8893">
        <ele>95</ele>
        <time>2013-03-20T00:24:14Z</time>
      </trkpt>
      <trkpt lat="47.89793" lon="1.8893">
        <ele>95</ele>
        <time>2013-03-20T00:24:15Z</time>
      </trkpt>
      <trkpt lat="47.89792" lon="1.89353">
        <ele>94</ele>
        <time>2013-03-20T00:24:53Z</time>
      </trkpt>
      <trkpt lat="47.89781" lon="1.89449">
        <ele>93</ele>
        <time>2013-03-20T00:25:01Z</time>
      </trkpt>
      <trkpt lat="47.89779" lon="1.89509">
        <ele>93</ele>
        <time>2013-03-20T00:25:07Z</time>
      </trkpt>
      <trkpt lat="47.89781" lon="1.89555">
        <ele>93</ele>
        <time>2013-03-20T00:25:11Z</time>
      </trkpt>
      <trkpt lat="47.89792" lon="1.89643">
        <ele>93</ele>
        <time>2013-03-20T00:25:19Z</time>
      </trkpt>
      <trkpt lat="47.89795" lon="1.89832">
        <ele>94</ele>
        <time>2013-03-20T00:25:38Z</time>
      </trkpt>
      <trkpt lat="47.8982" lon="1.90241">
        <ele>98</ele>
        <time>2013-03-20T00:26:25Z</time>
      </trkpt>
      <trkpt lat="47.89804" lon="1.90372">
        <ele>98</ele>
        <time>2013-03-20T00:26:38Z</time>
      </trkpt>
      <trkpt lat="47.89804" lon="1.90444">
        <ele>99</ele>
        <time>2013-03-20T00:26:45Z</time>
      </trkpt>
      <trkpt lat="47.89788" lon="1.90659">
        <ele>96</ele>
        <time>2013-03-20T00:27:05Z</time>
      </trkpt>
      <trkpt lat="47.89802" lon="1.91153">
        <ele>97</ele>
        <time>2013-03-20T00:27:51Z</time>
      </trkpt>
      <trkpt lat="47.89822" lon="1.91644">
        <ele>98</ele>
        <time>2013-03-20T00:28:38Z</time>
      </trkpt>
      <trkpt lat="47.89853" lon="1.91841">
        <ele>99</ele>
        <time>2013-03-20T00:28:58Z</time>
      </trkpt>
      <trkpt lat="47.89999" lon="1.91834">
        <ele>106</ele>
        <time>2013-03-20T00:29:35Z</time>
      </trkpt>
      <trkpt lat="47.90088" lon="1.91855">
        <ele>109</ele>
        <time>2013-03-20T00:29:54Z</time>
      </trkpt>
      <trkpt lat="47.90146" lon="1.91856">
        <ele>107</ele>
        <time>2013-03-20T00:30:02Z</time>
      </trkpt>
      <trkpt lat="47.90136" lon="1.91903">
        <ele>105</ele>
        <time>2013-03-20T00:30:06Z</time>
      </trkpt>
      <trkpt lat="47.90107" lon="1.91918">
        <ele>104</ele>
        <time>2013-03-20T00:30:10Z</time>
      </trkpt>
      <trkpt lat="47.90052" lon="1.91937">
        <ele>102</ele>
        <time>2013-03-20T00:30:18Z</time>
      </trkpt>
      <trkpt lat="47.89915" lon="1.92016">
        <ele>98</ele>
        <time>2013-03-20T00:30:37Z</time>
      </trkpt>
      <trkpt lat="47.89862" lon="1.92034">
        <ele>94</ele>
        <time>2013-03-20T00:30:45Z</time>
      </trkpt>
      <trkpt lat="47.89862" lon="1.92036">
        <ele>94</ele>
        <time>2013-03-20T00:30:45Z</time>
      </trkpt>
      <trkpt lat="47.89906" lon="1.92023">
        <ele>96</ele>
        <time>2013-03-20T00:30:58Z</time>
      </trkpt>
      <trkpt lat="47.89919" lon="1.92019">
        <ele>97</ele>
        <time>2013-03-20T00:31:02Z</time>
      </trkpt>
      <trkpt lat="47.90042" lon="1.91979">
        <ele>106</ele>
        <time>2013-03-20T00:31:38Z</time>
      </trkpt>
      <trkpt lat="47.90064" lon="1.91976">
        <ele>105</ele>
        <time>2013-03-20T00:31:41Z</time>
      </trkpt>
      <trkpt lat="47.90081" lon="1.91976">
        <ele>104</ele>
        <time>2013-03-20T00:31:43Z</time>
      </trkpt>
      <trkpt lat="47.90083" lon="1.91989">
        <ele>104</ele>
        <time>2013-03-20T00:31:45Z</time>
      </trkpt>
      <trkpt lat="47.90084" lon="1.92001">
        <ele>104</ele>
        <time>2013-03-20T00:31:46Z</time>
      </trkpt>
      <trkpt lat="47.90086" lon="1.92011">
        <ele>104</ele>
        <time>2013-03-20T00:31:47Z</time>
      </trkpt>
      <trkpt lat="47.90087" lon="1.92026">
        <ele>104</ele>
        <time>2013-03-20T00:31:48Z</time>
      </trkpt>
      <trkpt lat="47.90079" lon="1.92022">
        <ele>103</ele>
        <time>2013-03-20T00:31:49Z</time>
      </trkpt>
      <trkpt lat="47.90074" lon="1.91991">
        <ele>103</ele>
        <time>2013-03-20T00:31:52Z</time>
      </trkpt>
      <trkpt lat="47.90071" lon="1.91986">
        <ele>103</ele>
        <time>2013-03-20T00:31:52Z</time>
      </trkpt>
      <trkpt lat="47.90068" lon="1.91985">
        <ele>103</ele>
        <time>2013-03-20T00:31:53Z</time>
      </trkpt>
      <trkpt lat="47.90039" lon="1.91994">
        <ele>102</ele>
        <time>2013-03-20T00:31:57Z</time>
      </trkpt>
      <trkpt lat="47.89954" lon="1.92023">
        <ele>100</ele>
        <time>2013-03-20T00:32:08Z</time>
      </trkpt>
      <trkpt lat="47.89947" lon="1.92046">
        <ele>99</ele>
        <time>2013-03-20T00:32:11Z</time>
      </trkpt>
      <trkpt lat="47.89928" lon="1.92057">
        <ele>99</ele>
        <time>2013-03-20T00:32:13Z</time>
      </trkpt>
      <trkpt lat="47.89914" lon="1.92067">
        <ele>99</ele>
        <time>2013-03-20T00:32:16Z</time>
      </trkpt>
      <trkpt lat="47.89907" lon="1.92072">
        <ele>99</ele>
        <time>2013-03-20T00:32:17Z</time>
      </trkpt>
      <trkpt lat="47.89475" lon="1.92233">
        <ele>95</ele>
        <time>2013-03-20T00:33:16Z</time>
      </trkpt>
      <trkpt lat="47.89429" lon="1.92251">
        <ele>97</ele>
        <time>2013-03-20T00:33:27Z</time>
      </trkpt>
      <trkpt lat="47.89429" lon="1.92251">
        <ele>97</ele>
        <time>2013-03-20T00:33:28Z</time>
      </trkpt>
      <trkpt lat="47.89475" lon="1.92233">
        <ele>97</ele>
        <time>2013-03-20T00:33:35Z</time>
      </trkpt>
      <trkpt lat="47.89907" lon="1.92072">
        <ele>97</ele>
        <time>2013-03-20T00:34:34Z</time>
      </trkpt>
      <trkpt lat="47.89914" lon="1.92067">
        <ele>97</ele>
        <time>2013-03-20T00:34:35Z</time>
      </trkpt>
      <trkpt lat="47.89928" lon="1.92057">
        <ele>97</ele>
        <time>2013-03-20T00:34:37Z</time>
      </trkpt>
      <trkpt lat="47.89925" lon="1.92052">
        <ele>97</ele>
        <time>2013-03-20T00:34:38Z</time>
      </trkpt>
      <trkpt lat="47.89908" lon="1.92032">
        <ele>97</ele>
        <time>2013-03-20T00:34:41Z</time>
      </trkpt>
      <trkpt lat="47.89396" lon="1.92191">
        <ele>98</ele>
        <time>2013-03-20T00:35:53Z</time>
      </trkpt>
      <trkpt lat="47.89349" lon="1.92207">
        <ele>97</ele>
        <time>2013-03-20T00:35:59Z</time>
      </trkpt>
      <trkpt lat="47.89329" lon="1.92224">
        <ele>96</ele>
        <time>2013-03-20T00:36:02Z</time>
      </trkpt>
      <trkpt lat="47.89323" lon="1.92266">
        <ele>96</ele>
        <time>2013-03-20T00:36:06Z</time>
      </trkpt>
      <trkpt lat="47.89319" lon="1.92302">
        <ele>96</ele>
        <time>2013-03-20T00:36:10Z</time>
      </trkpt>
      <trkpt lat="47.89315" lon="1.9232">
        <ele>96</ele>
        <time>2013-03-20T00:36:11Z</time>
      </trkpt>
      <trkpt lat="47.89416" lon="1.92287">
        <ele>97</ele>
        <time>2013-03-20T00:36:27Z</time>
      </trkpt>
      <trkpt lat="47.89506" lon="1.92253">
        <ele>94</ele>
        <time>2013-03-20T00:36:40Z</time>
      </trkpt>
      <trkpt lat="47.89507" lon="1.92275">
        <ele>93</ele>
        <time>2013-03-20T00:36:42Z</time>
      </trkpt>
      <trkpt lat="47.89515" lon="1.92286">
        <ele>93</ele>
        <time>2013-03-20T00:36:43Z</time>
      </trkpt>
      <trkpt lat="47.89521" lon="1.92363">
        <ele>93</ele>
        <time>2013-03-20T00:36:50Z</time>
      </trkpt>
      <trkpt lat="47.89521" lon="1.92391">
        <ele>93</ele>
        <time>2013-03-20T00:36:53Z</time>
      </trkpt>
      <trkpt lat="47.89516" lon="1.92464">
        <ele>93</ele>
        <time>2013-03-20T00:37:00Z</time>
      </trkpt>
      <trkpt lat="47.89464" lon="1.92901">
        <ele>95</ele>
        <time>2013-03-20T00:37:44Z</time>
      </trkpt>
      <trkpt lat="47.89465" lon="1.92964">
        <ele>95</ele>
        <time>2013-03-20T00:37:50Z</time>
      </trkpt>
      <trkpt lat="47.89468" lon="1.93002">
        <ele>95</ele>
        <time>2013-03-20T00:37:54Z</time>
      </trkpt>
      <trkpt lat="47.89472" lon="1.93028">
        <ele>95</ele>
        <time>2013-03-20T00:37:57Z</time>
      </trkpt>
      <trkpt lat="47.89481" lon="1.93059">
        <ele>96</ele>
        <time>2013-03-20T00:38:01Z</time>
      </trkpt>
      <trkpt lat="47.89497" lon="1.93099">
        <ele>96</ele>
        <time>2013-03-20T00:38:05Z</time>
      </trkpt>
      <trkpt lat="47.89521" lon="1.9313">
        <ele>96</ele>
        <time>2013-03-20T00:38:09Z</time>
      </trkpt>
      <trkpt lat="47.89534" lon="1.93153">
        <ele>96</ele>
        <time>2013-03-20T00:38:12Z</time>
      </trkpt>
      <trkpt lat="47.8954" lon="1.93178">
        <ele>96</ele>
        <time>2013-03-20T00:38:14Z</time>
      </trkpt>
      <trkpt lat="47.89544" lon="1.93205">
        <ele>95</ele>
        <time>2013-03-20T00:38:17Z</time>
      </trkpt>
      <trkpt lat="47.8955" lon="1.93247">
        <ele>95</ele>
        <time>2013-03-20T00:38:21Z</time>
      </trkpt>
      <trkpt lat="47.89558" lon="1.93265">
        <ele>94</ele>
        <time>2013-03-20T00:38:22Z</time>
      </trkpt>
      <trkpt lat="47.89567" lon="1.93279">
        <ele>94</ele>
        <time>2013-03-20T00:38:24Z</time>
      </trkpt>
      <trkpt lat="47.89576" lon="1.93297">
        <ele>94</ele>
        <time>2013-03-20T00:38:26Z</time>
      </trkpt>
      <trkpt lat="47.89585" lon="1.93317">
        <ele>94</ele>
        <time>2013-03-20T00:38:28Z</time>
      </trkpt>
      <trkpt lat="47.89591" lon="1.93384">
        <ele>94</ele>
        <time>2013-03-20T00:38:36Z</time>
      </trkpt>
      <trkpt lat="47.89594" lon="1.93417">
        <ele>94</ele>
        <time>2013-03-20T00:38:39Z</time>
      </trkpt>
      <trkpt lat="47.89591" lon="1.9344">
        <ele>94</ele>
        <time>2013-03-20T00:38:42Z</time>
      </trkpt>
      <trkpt lat="47.89588" lon="1.93466">
        <ele>95</ele>
        <time>2013-03-20T00:38:44Z</time>
      </trkpt>
      <trkpt lat="47.89583" lon="1.93487">
        <ele>95</ele>
        <time>2013-03-20T00:38:47Z</time>
      </trkpt>
      <trkpt lat="47.89579" lon="1.93514">
        <ele>95</ele>
        <time>2013-03-20T00:38:50Z</time>
      </trkpt>
      <trkpt lat="47.89579" lon="1.93535">
        <ele>95</ele>
        <time>2013-03-20T00:38:53Z</time>
      </trkpt>
      <trkpt lat="47.8958" lon="1.93554">
        <ele>96</ele>
        <time>2013-03-20T00:38:55Z</time>
      </trkpt>
      <trkpt lat="47.89582" lon="1.93577">
        <ele>96</ele>
        <time>2013-03-20T00:38:58Z</time>
      </trkpt>
      <trkpt lat="47.89583" lon="1.93606">
        <ele>97</ele>
        <time>2013-03-20T00:39:02Z</time>
      </trkpt>
      <trkpt lat="47.89586" lon="1.9362">
        <ele>96</ele>
        <time>2013-03-20T00:39:03Z</time>
      </trkpt>
      <trkpt lat="47.89597" lon="1.93618">
        <ele>96</ele>
        <time>2013-03-20T00:39:05Z</time>
      </trkpt>
      <trkpt lat="47.89605" lon="1.93617">
        <ele>96</ele>
        <time>2013-03-20T00:39:06Z</time>
      </trkpt>
      <trkpt lat="47.89629" lon="1.93612">
        <ele>95</ele>
        <time>2013-03-20T00:39:09Z</time>
      </trkpt>
      <trkpt lat="47.89638" lon="1.93611">
        <ele>95</ele>
        <time>2013-03-20T00:39:10Z</time>
      </trkpt>
      <trkpt lat="47.8965" lon="1.93611">
        <ele>95</ele>
        <time>2013-03-20T00:39:12Z</time>
      </trkpt>
      <trkpt lat="47.89664" lon="1.93602">
        <ele>95</ele>
        <time>2013-03-20T00:39:14Z</time>
      </trkpt>
      <trkpt lat="47.89673" lon="1.93594">
        <ele>95</ele>
        <time>2013-03-20T00:39:15Z</time>
      </trkpt>
      <trkpt lat="47.8969" lon="1.9358">
        <ele>94</ele>
        <time>2013-03-20T00:39:18Z</time>
      </trkpt>
      <trkpt lat="47.89718" lon="1.93568">
        <ele>93</ele>
        <time>2013-03-20T00:39:22Z</time>
      </trkpt>
      <trkpt lat="47.89733" lon="1.93561">
        <ele>93</ele>
        <time>2013-03-20T00:39:24Z</time>
      </trkpt>
      <trkpt lat="47.8975" lon="1.93554">
        <ele>92</ele>
        <time>2013-03-20T00:39:26Z</time>
      </trkpt>
      <trkpt lat="47.89767" lon="1.93559">
        <ele>92</ele>
        <time>2013-03-20T00:39:28Z</time>
      </trkpt>
      <trkpt lat="47.89788" lon="1.9357">
        <ele>92</ele>
        <time>2013-03-20T00:39:32Z</time>
      </trkpt>
      <trkpt lat="47.89808" lon="1.93587">
        <ele>92</ele>
        <time>2013-03-20T00:39:36Z</time>
      </trkpt>
      <trkpt lat="47.89828" lon="1.93619">
        <ele>92</ele>
        <time>2013-03-20T00:39:40Z</time>
      </trkpt>
      <trkpt lat="47.89837" lon="1.93656">
        <ele>93</ele>
        <time>2013-03-20T00:39:44Z</time>
      </trkpt>
      <trkpt lat="47.89846" lon="1.93709">
        <ele>93</ele>
        <time>2013-03-20T00:39:49Z</time>
      </trkpt>
      <trkpt lat="47.89853" lon="1.93751">
        <ele>93</ele>
        <time>2013-03-20T00:39:53Z</time>
      </trkpt>
      <trkpt lat="47.8987" lon="1.93805">
        <ele>93</ele>
        <time>2013-03-20T00:39:58Z</time>
      </trkpt>
      <trkpt lat="47.89897" lon="1.93889">
        <ele>94</ele>
        <time>2013-03-20T00:40:10Z</time>
      </trkpt>
      <trkpt lat="47.89914" lon="1.9394">
        <ele>95</ele>
        <time>2013-03-20T00:40:17Z</time>
      </trkpt>
      <trkpt lat="47.89949" lon="1.94045">
        <ele>92</ele>
        <time>2013-03-20T00:40:27Z</time>
      </trkpt>
      <trkpt lat="47.89962" lon="1.9407">
        <ele>92</ele>
        <time>2013-03-20T00:40:30Z</time>
      </trkpt>
      <trkpt lat="47.89972" lon="1.94091">
        <ele>92</ele>
        <time>2013-03-20T00:40:33Z</time>
      </trkpt>
      <trkpt lat="47.90009" lon="1.94165">
        <ele>92</ele>
        <time>2013-03-20T00:40:43Z</time>
      </trkpt>
      <trkpt lat="47.90015" lon="1.94193">
        <ele>93</ele>
        <time>2013-03-20T00:40:46Z</time>
      </trkpt>
      <trkpt lat="47.90023" lon="1.94228">
        <ele>92</ele>
        <time>2013-03-20T00:40:49Z</time>
      </trkpt>
      <trkpt lat="47.90028" lon="1.94248">
        <ele>92</ele>
        <time>2013-03-20T00:40:51Z</time>
      </trkpt>
      <trkpt lat="47.90031" lon="1.94266">
        <ele>91</ele>
        <time>2013-03-20T00:40:53Z</time>
      </trkpt>
      <trkpt lat="47.90034" lon="1.94286">
        <ele>91</ele>
        <time>2013-03-20T00:40:54Z</time>
      </trkpt>
      <trkpt lat="47.90036" lon="1.94315">
        <ele>91</ele>
        <time>2013-03-20T00:40:57Z</time>
      </trkpt>
      <trkpt lat="47.90037" lon="1.94331">
        <ele>91</ele>
        <time>2013-03-20T00:40:58Z</time>
      </trkpt>
      <trkpt lat="47.90038" lon="1.94353">
        <ele>91</ele>
        <time>2013-03-20T00:41:00Z</time>
      </trkpt>
      <trkpt lat="47.90038" lon="1.94361">
        <ele>91</ele>
        <time>2013-03-20T00:41:01Z</time>
      </trkpt>
      <trkpt lat="47.90042" lon="1.94377">
        <ele>91</ele>
        <time>2013-03-20T00:41:03Z</time>
      </trkpt>
      <trkpt lat="47.90059" lon="1.94458">
        <ele>91</ele>
        <time>2013-03-20T00:41:10Z</time>
      </trkpt>
      <trkpt lat="47.90076" lon="1.94544">
        <ele>91</ele>
        <time>2013-03-20T00:41:18Z</time>
      </trkpt>
      <trkpt lat="47.90086" lon="1.94635">
        <ele>91</ele>
        <time>2013-03-20T00:41:27Z</time>
      </trkpt>
      <trkpt lat="47.9009" lon="1.94676">
        <ele>91</ele>
        <time>2013-03-20T00:41:30Z</time>
      </trkpt>
      <trkpt lat="47.901" lon="1.94743">
        <ele>91</ele>
        <time>2013-03-20T00:41:36Z</time>
      </trkpt>
      <trkpt lat="47.90111" lon="1.94818">
        <ele>91</ele>
        <time>2013-03-20T00:41:43Z</time>
      </trkpt>
      <trkpt lat="47.90117" lon="1.94888">
        <ele>91</ele>
        <time>2013-03-20T00:41:50Z</time>
      </trkpt>
      <trkpt lat="47.90118" lon="1.94901">
        <ele>91</ele>
        <time>2013-03-20T00:41:51Z</time>
      </trkpt>
      <trkpt lat="47.90119" lon="1.94956">
        <ele>91</ele>
        <time>2013-03-20T00:41:57Z</time>
      </trkpt>
      <trkpt lat="47.90122" lon="1.95092">
        <ele>93</ele>
        <time>2013-03-20T00:42:13Z</time>
      </trkpt>
      <trkpt lat="47.90123" lon="1.95127">
        <ele>93</ele>
        <time>2013-03-20T00:42:16Z</time>
      </trkpt>
      <trkpt lat="47.90125" lon="1.95167">
        <ele>93</ele>
        <time>2013-03-20T00:42:20Z</time>
      </trkpt>
      <trkpt lat="47.90127" lon="1.95215">
        <ele>93</ele>
        <time>2013-03-20T00:42:25Z</time>
      </trkpt>
      <trkpt lat="47.90128" lon="1.95338">
        <ele>94</ele>
        <time>2013-03-20T00:42:37Z</time>
      </trkpt>
      <trkpt lat="47.90129" lon="1.95384">
        <ele>94</ele>
        <time>2013-03-20T00:42:42Z</time>
      </trkpt>
      <trkpt lat="47.90127" lon="1.95393">
        <ele>94</ele>
        <time>2013-03-20T00:42:43Z</time>
      </trkpt>
      <trkpt lat="47.90123" lon="1.95418">
        <ele>94</ele>
        <time>2013-03-20T00:42:45Z</time>
      </trkpt>
      <trkpt lat="47.90062" lon="1.95589">
        <ele>95</ele>
        <time>2013-03-20T00:43:04Z</time>
      </trkpt>
      <trkpt lat="47.90018" lon="1.95783">
        <ele>95</ele>
        <time>2013-03-20T00:43:22Z</time>
      </trkpt>
      <trkpt lat="47.89961" lon="1.96031">
        <ele>94</ele>
        <time>2013-03-20T00:43:46Z</time>
      </trkpt>
      <trkpt lat="47.89937" lon="1.96061">
        <ele>94</ele>
        <time>2013-03-20T00:43:50Z</time>
      </trkpt>
      <trkpt lat="47.89931" lon="1.96069">
        <ele>94</ele>
        <time>2013-03-20T00:43:51Z</time>
      </trkpt>
      <trkpt lat="47.89931" lon="1.96388">
        <ele>94</ele>
        <time>2013-03-20T00:44:20Z</time>
      </trkpt>
      <trkpt lat="47.89934" lon="1.96416">
        <ele>93</ele>
        <time>2013-03-20T00:44:22Z</time>
      </trkpt>
      <trkpt lat="47.89944" lon="1.96516">
        <ele>93</ele>
        <time>2013-03-20T00:44:31Z</time>
      </trkpt>
      <trkpt lat="47.89954" lon="1.96761">
        <ele>92</ele>
        <time>2013-03-20T00:44:53Z</time>
      </trkpt>
      <trkpt lat="47.89953" lon="1.96882">
        <ele>92</ele>
        <time>2013-03-20T00:45:05Z</time>
      </trkpt>
      <trkpt lat="47.89945" lon="1.97028">
        <ele>93</ele>
        <time>2013-03-20T00:45:20Z</time>
      </trkpt>
      <trkpt lat="47.89933" lon="1.97122">
        <ele>94</ele>
        <time>2013-03-20T00:45:31Z</time>
      </trkpt>
      <trkpt lat="47.89915" lon="1.97213">
        <ele>95</ele>
        <time>2013-03-20T00:45:42Z</time>
      </trkpt>
      <trkpt lat="47.89908" lon="1.97218">
        <ele>94</ele>
        <time>2013-03-20T00:45:43Z</time>
      </trkpt>
      <trkpt lat="47.89892" lon="1.97224">
        <ele>94</ele>
        <time>2013-03-20T00:45:45Z</time>
      </trkpt>
      <trkpt lat="47.89852" lon="1.97212">
        <ele>93</ele>
        <time>2013-03-20T00:45:50Z</time>
      </trkpt>
      <trkpt lat="47.89852" lon="1.97212">
        <ele>93</ele>
        <time>2013-03-20T00:45:51Z</time>
      </trkpt>
      <trkpt lat="47.89701" lon="1.9717">
        <ele>92</ele>
        <time>2013-03-20T00:46:12Z</time>
      </trkpt>
      <trkpt lat="47.89661" lon="1.97156">
        <ele>92</ele>
        <time>2013-03-20T00:46:19Z</time>
      </trkpt>
      <trkpt lat="47.8951" lon="1.97127">
        <ele>95</ele>
        <time>2013-03-20T00:46:45Z</time>
      </trkpt>
      <trkpt lat="47.89483" lon="1.97107">
        <ele>94</ele>
        <time>2013-03-20T00:46:49Z</time>
      </trkpt>
      <trkpt lat="47.89466" lon="1.97115">
        <ele>94</ele>
        <time>2013-03-20T00:46:51Z</time>
      </trkpt>
      <trkpt lat="47.89465" lon="1.97127">
        <ele>94</ele>
        <time>2013-03-20T00:46:52Z</time>
      </trkpt>
      <trkpt lat="47.89459" lon="1.97151">
        <ele>94</ele>
        <time>2013-03-20T00:46:55Z</time>
      </trkpt>
      <trkpt lat="47.89381" lon="1.97339">
        <ele>93</ele>
        <time>2013-03-20T00:47:14Z</time>
      </trkpt>
      <trkpt lat="47.89353" lon="1.97366">
        <ele>93</ele>
        <time>2013-03-20T00:47:20Z</time>
      </trkpt>
      <trkpt lat="47.89305" lon="1.97412">
        <ele>94</ele>
        <time>2013-03-20T00:47:29Z</time>
      </trkpt>
      <trkpt lat="47.89265" lon="1.97464">
        <ele>94</ele>
        <time>2013-03-20T00:47:37Z</time>
      </trkpt>
      <trkpt lat="47.89225" lon="1.97527">
        <ele>95</ele>
        <time>2013-03-20T00:47:46Z</time>
      </trkpt>
      <trkpt lat="47.8921" lon="1.97541">
        <ele>95</ele>
        <time>2013-03-20T00:47:48Z</time>
      </trkpt>
      <trkpt lat="47.89148" lon="1.97608">
        <ele>95</ele>
        <time>2013-03-20T00:47:59Z</time>
      </trkpt>
      <trkpt lat="47.89072" lon="1.97727">
        <ele>93</ele>
        <time>2013-03-20T00:48:13Z</time>
      </trkpt>
      <trkpt lat="47.88907" lon="1.98011">
        <ele>97</ele>
        <time>2013-03-20T00:48:57Z</time>
      </trkpt>
      <trkpt lat="47.8886" lon="1.98112">
        <ele>97</ele>
        <time>2013-03-20T00:49:09Z</time>
      </trkpt>
      <trkpt lat="47.88843" lon="1.98167">
        <ele>98</ele>
        <time>2013-03-20T00:49:15Z</time>
      </trkpt>
      <trkpt lat="47.88821" lon="1.9827">
        <ele>96</ele>
        <time>2013-03-20T00:49:25Z</time>
      </trkpt>
      <trkpt lat="47.88821" lon="1.98388">
        <ele>95</ele>
        <time>2013-03-20T00:49:36Z</time>
      </trkpt>
      <trkpt lat="47.88834" lon="1.98488">
        <ele>95</ele>
        <time>2013-03-20T00:49:46Z</time>
      </trkpt>
      <trkpt lat="47.88865" lon="1.98597">
        <ele>96</ele>
        <time>2013-03-20T00:49:58Z</time>
      </trkpt>
      <trkpt lat="47.88903" lon="1.98694">
        <ele>96</ele>
        <time>2013-03-20T00:50:10Z</time>
      </trkpt>
      <trkpt lat="47.88903" lon="1.98729">
        <ele>97</ele>
        <time>2013-03-20T00:50:13Z</time>
      </trkpt>
      <trkpt lat="47.88889" lon="1.98819">
        <ele>96</ele>
        <time>2013-03-20T00:50:22Z</time>
      </trkpt>
      <trkpt lat="47.88892" lon="1.98862">
        <ele>96</ele>
        <time>2013-03-20T00:50:26Z</time>
      </trkpt>
      <trkpt lat="47.88922" lon="1.98965">
        <ele>96</ele>
        <time>2013-03-20T00:50:36Z</time>
      </trkpt>
      <trkpt lat="47.88973" lon="1.99069">
        <ele>96</ele>
        <time>2013-03-20T00:50:47Z</time>
      </trkpt>
      <trkpt lat="47.89035" lon="1.99159">
        <ele>97</ele>
        <time>2013-03-20T00:51:02Z</time>
      </trkpt>
      <trkpt lat="47.89046" lon="1.99213">
        <ele>98</ele>
        <time>2013-03-20T00:51:09Z</time>
      </trkpt>
      <trkpt lat="47.89057" lon="1.99387">
        <ele>95</ele>
        <time>2013-03-20T00:51:24Z</time>
      </trkpt>
      <trkpt lat="47.89054" lon="1.99404">
        <ele>94</ele>
        <time>2013-03-20T00:51:26Z</time>
      </trkpt>
      <trkpt lat="47.88973" lon="1.99509">
        <ele>94</ele>
        <time>2013-03-20T00:51:40Z</time>
      </trkpt>
      <trkpt lat="47.88917" lon="1.99562">
        <ele>93</ele>
        <time>2013-03-20T00:51:49Z</time>
      </trkpt>
      <trkpt lat="47.88794" lon="1.9971">
        <ele>92</ele>
        <time>2013-03-20T00:52:10Z</time>
      </trkpt>
      <trkpt lat="47.88716" lon="1.99812">
        <ele>92</ele>
        <time>2013-03-20T00:52:24Z</time>
      </trkpt>
      <trkpt lat="47.8867" lon="1.99902">
        <ele>91</ele>
        <time>2013-03-20T00:52:34Z</time>
      </trkpt>
      <trkpt lat="47.88618" lon="2.00013">
        <ele>91</ele>
        <time>2013-03-20T00:52:46Z</time>
      </trkpt>
      <trkpt lat="47.88564" lon="2.00161">
        <ele>92</ele>
        <time>2013-03-20T00:53:04Z</time>
      </trkpt>
      <trkpt lat="47.88486" lon="2.00459">
        <ele>93</ele>
        <time>2013-03-20T00:53:35Z</time>
      </trkpt>
      <trkpt lat="47.88454" lon="2.00592">
        <ele>93</ele>
        <time>2013-03-20T00:53:48Z</time>
      </trkpt>
      <trkpt lat="47.88395" lon="2.00928">
        <ele>94</ele>
        <time>2013-03-20T00:54:21Z</time>
      </trkpt>
      <trkpt lat="47.88349" lon="2.01104">
        <ele>95</ele>
        <time>2013-03-20T00:54:40Z</time>
      </trkpt>
      <trkpt lat="47.8831" lon="2.01191">
        <ele>95</ele>
        <time>2013-03-20T00:54:51Z</time>
      </trkpt>
      <trkpt lat="47.8826" lon="2.01357">
        <ele>96</ele>
        <time>2013-03-20T00:55:08Z</time>
      </trkpt>
      <trkpt lat="47.88226" lon="2.01456">
        <ele>95</ele>
        <time>2013-03-20T00:55:18Z</time>
      </trkpt>
      <trkpt lat="47.88176" lon="2.01555">
        <ele>95</ele>
        <time>2013-03-20T00:55:30Z</time>
      </trkpt>
      <trkpt lat="47.8811" lon="2.01689">
        <ele>95</ele>
        <time>2013-03-20T00:55:44Z</time>
      </trkpt>
      <trkpt lat="47.87961" lon="2.01935">
        <ele>96</ele>
        <time>2013-03-20T00:56:17Z</time>
      </trkpt>
      <trkpt lat="47.87926" lon="2.02026">
        <ele>96</ele>
        <time>2013-03-20T00:56:28Z</time>
      </trkpt>
      <trkpt lat="47.87838" lon="2.02198">
        <ele>99</ele>
        <time>2013-03-20T00:56:52Z</time>
      </trkpt>
      <trkpt lat="47.87713" lon="2.02343">
        <ele>99</ele>
        <time>2013-03-20T00:57:14Z</time>
      </trkpt>
      <trkpt lat="47.87522" lon="2.02408">
        <ele>99</ele>
        <time>2013-03-20T00:57:40Z</time>
      </trkpt>
      <trkpt lat="47.86844" lon="2.0265">
        <ele>100</ele>
        <time>2013-03-20T00:59:15Z</time>
      </trkpt>
      <trkpt lat="47.86844" lon="2.0265">
        <ele>100</ele>
        <time>2013-03-20T00:59:16Z</time>
      </trkpt>
      <trkpt lat="47.86631" lon="2.02726">
        <ele>97</ele>
        <time>2013-03-20T00:59:46Z</time>
      </trkpt>
      <trkpt lat="47.86605" lon="2.02736">
        <ele>97</ele>
        <time>2013-03-20T00:59:49Z</time>
      </trkpt>
      <trkpt lat="47.86427" lon="2.02803">
        <ele>98</ele>
        <time>2013-03-20T01:00:16Z</time>
      </trkpt>
      <trkpt lat="47.86183" lon="2.02908">
        <ele>97</ele>
        <time>2013-03-20T01:00:50Z</time>
      </trkpt>
      <trkpt lat="47.85958" lon="2.02998">
        <ele>97</ele>
        <time>2013-03-20T01:01:21Z</time>
      </trkpt>
      <trkpt lat="47.85815" lon="2.03044">
        <ele>96</ele>
        <time>2013-03-20T01:01:41Z</time>
      </trkpt>
      <trkpt lat="47.85561" lon="2.03239">
        <ele>96</ele>
        <time>2013-03-20T01:02:19Z</time>
      </trkpt>
      <trkpt lat="47.85537" lon="2.03269">
        <ele>96</ele>
        <time>2013-03-20T01:02:24Z</time>
      </trkpt>
      <trkpt lat="47.85475" lon="2.03349">
        <ele>97</ele>
        <time>2013-03-20T01:02:36Z</time>
      </trkpt>
      <trkpt lat="47.85369" lon="2.03589">
        <ele>96</ele>
        <time>2013-03-20T01:03:02Z</time>
      </trkpt>
      <trkpt lat="47.85276" lon="2.03905">
        <ele>96</ele>
        <time>2013-03-20T01:03:33Z</time>
      </trkpt>
      <trkpt lat="47.85273" lon="2.04141">
        <ele>95</ele>
        <time>2013-03-20T01:03:54Z</time>
      </trkpt>
      <trkpt lat="47.85289" lon="2.04384">
        <ele>95</ele>
        <time>2013-03-20T01:04:16Z</time>
      </trkpt>
      <trkpt lat="47.85351" lon="2.04835">
        <ele>96</ele>
        <time>2013-03-20T01:05:00Z</time>
      </trkpt>
      <trkpt lat="47.85398" lon="2.05111">
        <ele>97</ele>
        <time>2013-03-20T01:05:28Z</time>
      </trkpt>
      <trkpt lat="47.85442" lon="2.05269">
        <ele>97</ele>
        <time>2013-03-20T01:05:43Z</time>
      </trkpt>
      <trkpt lat="47.85479" lon="2.05951">
        <ele>98</ele>
        <time>2013-03-20T01:06:47Z</time>
      </trkpt>
      <trkpt lat="47.855" lon="2.06032">
        <ele>98</ele>
        <time>2013-03-20T01:06:55Z</time>
      </trkpt>
      <trkpt lat="47.85589" lon="2.06225">
        <ele>98</ele>
        <time>2013-03-20T01:07:16Z</time>
      </trkpt>
      <trkpt lat="47.85609" lon="2.06283">
        <ele>98</ele>
        <time>2013-03-20T01:07:21Z</time>
      </trkpt>
      <trkpt lat="47.85614" lon="2.06298">
        <ele>98</ele>
        <time>2013-03-20T01:07:23Z</time>
      </trkpt>
      <trkpt lat="47.85781" lon="2.06811">
        <ele>98</ele>
        <time>2013-03-20T01:08:14Z</time>
      </trkpt>
      <trkpt lat="47.85841" lon="2.06935">
        <ele>98</ele>
        <time>2013-03-20T01:08:28Z</time>
      </trkpt>
      <trkpt lat="47.8585" lon="2.06948">
        <ele>98</ele>
        <time>2013-03-20T01:08:29Z</time>
      </trkpt>
      <trkpt lat="47.85877" lon="2.06972">
        <ele>98</ele>
        <time>2013-03-20T01:08:34Z</time>
      </trkpt>
      <trkpt lat="47.85891" lon="2.06989">
        <ele>98</ele>
        <time>2013-03-20T01:08:36Z</time>
      </trkpt>
      <trkpt lat="47.85907" lon="2.07011">
        <ele>98</ele>
        <time>2013-03-20T01:08:39Z</time>
      </trkpt>
      <trkpt lat="47.85921" lon="2.07034">
        <ele>98</ele>
        <time>2013-03-20T01:08:42Z</time>
      </trkpt>
      <trkpt lat="47.85949" lon="2.07084">
        <ele>98</ele>
        <time>2013-03-20T01:08:48Z</time>
      </trkpt>
      <trkpt lat="47.85975" lon="2.07138">
        <ele>98</ele>
        <time>2013-03-20T01:08:53Z</time>
      </trkpt>
      <trkpt lat="47.8599" lon="2.07184">
        <ele>98</ele>
        <time>2013-03-20T01:08:58Z</time>
      </trkpt>
      <trkpt lat="47.86002" lon="2.07226">
        <ele>97</ele>
        <time>2013-03-20T01:09:02Z</time>
      </trkpt>
      <trkpt lat="47.8603" lon="2.07333">
        <ele>97</ele>
        <time>2013-03-20T01:09:12Z</time>
      </trkpt>
      <trkpt lat="47.86044" lon="2.07378">
        <ele>97</ele>
        <time>2013-03-20T01:09:17Z</time>
      </trkpt>
      <trkpt lat="47.86103" lon="2.07547">
        <ele>98</ele>
        <time>2013-03-20T01:09:36Z</time>
      </trkpt>
      <trkpt lat="47.86157" lon="2.07614">
        <ele>98</ele>
        <time>2013-03-20T01:09:47Z</time>
      </trkpt>
      <trkpt lat="47.86214" lon="2.07689">
        <ele>99</ele>
        <time>2013-03-20T01:09:58Z</time>
      </trkpt>
      <trkpt lat="47.86225" lon="2.07708">
        <ele>99</ele>
        <time>2013-03-20T01:10:01Z</time>
      </trkpt>
      <trkpt lat="47.86234" lon="2.07726">
        <ele>99</ele>
        <time>2013-03-20T01:10:03Z</time>
      </trkpt>
      <trkpt lat="47.86264" lon="2.07792">
        <ele>99</ele>
        <time>2013-03-20T01:10:10Z</time>
      </trkpt>
      <trkpt lat="47.86438" lon="2.08149">
        <ele>99</ele>
        <time>2013-03-20T01:10:49Z</time>
      </trkpt>
      <trkpt lat="47.86457" lon="2.08194">
        <ele>98</ele>
        <time>2013-03-20T01:10:54Z</time>
      </trkpt>
      <trkpt lat="47.86465" lon="2.0821">
        <ele>98</ele>
        <time>2013-03-20T01:10:56Z</time>
      </trkpt>
      <trkpt lat="47.86498" lon="2.08337">
        <ele>98</ele>
        <time>2013-03-20T01:11:08Z</time>
      </trkpt>
      <trkpt lat="47.86514" lon="2.08386">
        <ele>98</ele>
        <time>2013-03-20T01:11:13Z</time>
      </trkpt>
      <trkpt lat="47.86536" lon="2.08461">
        <ele>98</ele>
        <time>2013-03-20T01:11:20Z</time>
      </trkpt>
      <trkpt lat="47.8656" lon="2.08519">
        <ele>98</ele>
        <time>2013-03-20T01:11:27Z</time>
      </trkpt>
      <trkpt lat="47.86672" lon="2.08766">
        <ele>99</ele>
        <time>2013-03-20T01:11:55Z</time>
      </trkpt>
      <trkpt lat="47.86709" lon="2.08854">
        <ele>98</ele>
        <time>2013-03-20T01:12:05Z</time>
      </trkpt>
      <trkpt lat="47.86734" lon="2.08916">
        <ele>98</ele>
        <time>2013-03-20T01:12:11Z</time>
      </trkpt>
      <trkpt lat="47.86769" lon="2.09015">
        <ele>98</ele>
        <time>2013-03-20T01:12:21Z</time>
      </trkpt>
      <trkpt lat="47.86782" lon="2.09058">
        <ele>98</ele>
        <time>2013-03-20T01:12:26Z</time>
      </trkpt>
      <trkpt lat="47.86815" lon="2.09177">
        <ele>98</ele>
        <time>2013-03-20T01:12:39Z</time>
      </trkpt>
      <trkpt lat="47.8682" lon="2.09203">
        <ele>99</ele>
        <time>2013-03-20T01:12:42Z</time>
      </trkpt>
      <trkpt lat="47.86827" lon="2.09263">
        <ele>99</ele>
        <time>2013-03-20T01:12:47Z</time>
      </trkpt>
      <trkpt lat="47.86835" lon="2.09323">
        <ele>99</ele>
        <time>2013-03-20T01:12:53Z</time>
      </trkpt>
      <trkpt lat="47.86866" lon="2.09497">
        <ele>99</ele>
        <time>2013-03-20T01:13:09Z</time>
      </trkpt>
      <trkpt lat="47.86879" lon="2.0956">
        <ele>99</ele>
        <time>2013-03-20T01:13:15Z</time>
      </trkpt>
      <trkpt lat="47.86883" lon="2.09589">
        <ele>99</ele>
        <time>2013-03-20T01:13:18Z</time>
      </trkpt>
      <trkpt lat="47.86886" lon="2.09625">
        <ele>99</ele>
        <time>2013-03-20T01:13:21Z</time>
      </trkpt>
      <trkpt lat="47.86901" lon="2.09763">
        <ele>99</ele>
        <time>2013-03-20T01:13:33Z</time>
      </trkpt>
      <trkpt lat="47.86919" lon="2.09942">
        <ele>98</ele>
        <time>2013-03-20T01:13:50Z</time>
      </trkpt>
      <trkpt lat="47.86926" lon="2.1002">
        <ele>98</ele>
        <time>2013-03-20T01:13:57Z</time>
      </trkpt>
      <trkpt lat="47.86931" lon="2.10066">
        <ele>98</ele>
        <time>2013-03-20T01:14:01Z</time>
      </trkpt>
      <trkpt lat="47.86932" lon="2.10085">
        <ele>98</ele>
        <time>2013-03-20T01:14:02Z</time>
      </trkpt>
      <trkpt lat="47.86929" lon="2.10147">
        <ele>98</ele>
        <time>2013-03-20T01:14:09Z</time>
      </trkpt>
      <trkpt lat="47.86925" lon="2.10183">
        <ele>98</ele>
        <time>2013-03-20T01:14:13Z</time>
      </trkpt>
      <trkpt lat="47.86875" lon="2.10534">
        <ele>101</ele>
        <time>2013-03-20T01:14:51Z</time>
      </trkpt>
      <trkpt lat="47.86866" lon="2.10607">
        <ele>100</ele>
        <time>2013-03-20T01:14:57Z</time>
      </trkpt>
      <trkpt lat="47.86864" lon="2.1064">
        <ele>100</ele>
        <time>2013-03-20T01:15:00Z</time>
      </trkpt>
      <trkpt lat="47.86843" lon="2.11053">
        <ele>100</ele>
        <time>2013-03-20T01:15:37Z</time>
      </trkpt>
      <trkpt lat="47.86826" lon="2.11434">
        <ele>103</ele>
        <time>2013-03-20T01:16:19Z</time>
      </trkpt>
      <trkpt lat="47.8683" lon="2.11487">
        <ele>102</ele>
        <time>2013-03-20T01:16:24Z</time>
      </trkpt>
      <trkpt lat="47.86835" lon="2.11571">
        <ele>102</ele>
        <time>2013-03-20T01:16:31Z</time>
      </trkpt>
      <trkpt lat="47.86838" lon="2.11607">
        <ele>101</ele>
        <time>2013-03-20T01:16:34Z</time>
      </trkpt>
      <trkpt lat="47.86834" lon="2.1166">
        <ele>101</ele>
        <time>2013-03-20T01:16:39Z</time>
      </trkpt>
      <trkpt lat="47.8683" lon="2.11693">
        <ele>101</ele>
        <time>2013-03-20T01:16:42Z</time>
      </trkpt>
      <trkpt lat="47.86789" lon="2.11885">
        <ele>101</ele>
        <time>2013-03-20T01:17:00Z</time>
      </trkpt>
      <trkpt lat="47.86781" lon="2.11946">
        <ele>101</ele>
        <time>2013-03-20T01:17:07Z</time>
      </trkpt>
      <trkpt lat="47.86784" lon="2.12048">
        <ele>102</ele>
        <time>2013-03-20T01:17:17Z</time>
      </trkpt>
      <trkpt lat="47.86784" lon="2.12067">
        <ele>102</ele>
        <time>2013-03-20T01:17:19Z</time>
      </trkpt>
      <trkpt lat="47.86778" lon="2.12115">
        <ele>102</ele>
        <time>2013-03-20T01:17:23Z</time>
      </trkpt>
      <trkpt lat="47.86766" lon="2.12222">
        <ele>102</ele>
        <time>2013-03-20T01:17:33Z</time>
      </trkpt>
      <trkpt lat="47.86748" lon="2.12314">
        <ele>102</ele>
        <time>2013-03-20T01:17:42Z</time>
      </trkpt>
      <trkpt lat="47.86742" lon="2.12345">
        <ele>102</ele>
        <time>2013-03-20T01:17:45Z</time>
      </trkpt>
      <trkpt lat="47.86741" lon="2.12348">
        <ele>102</ele>
        <time>2013-03-20T01:17:45Z</time>
      </trkpt>
      <trkpt lat="47.86731" lon="2.12411">
        <ele>102</ele>
        <time>2013-03-20T01:17:51Z</time>
      </trkpt>
      <trkpt lat="47.86705" lon="2.12585">
        <ele>99</ele>
        <time>2013-03-20T01:18:07Z</time>
      </trkpt>
      <trkpt lat="47.86686" lon="2.1259">
        <ele>100</ele>
        <time>2013-03-20T01:18:12Z</time>
      </trkpt>
      <trkpt lat="47.86653" lon="2.12674">
        <ele>104</ele>
        <time>2013-03-20T01:18:30Z</time>
      </trkpt>
      <trkpt lat="47.86653" lon="2.12674">
        <ele>104</ele>
        <time>2013-03-20T01:18:31Z</time>
      </trkpt>
      <trkpt lat="47.86635" lon="2.1272">
        <ele>103</ele>
        <time>2013-03-20T01:18:36Z</time>
      </trkpt>
      <trkpt lat="47.86611" lon="2.12768">
        <ele>101</ele>
        <time>2013-03-20T01:18:41Z</time>
      </trkpt>
      <trkpt lat="47.86586" lon="2.12797">
        <ele>101</ele>
        <time>2013-03-20T01:18:45Z</time>
      </trkpt>
      <trkpt lat="47.86507" lon="2.12892">
        <ele>101</ele>
        <time>2013-03-20T01:18:59Z</time>
      </trkpt>
      <trkpt lat="47.86456" lon="2.12952">
        <ele>102</ele>
        <time>2013-03-20T01:19:11Z</time>
      </trkpt>
      <trkpt lat="47.86439" lon="2.12973">
        <ele>102</ele>
        <time>2013-03-20T01:19:15Z</time>
      </trkpt>
      <trkpt lat="47.86401" lon="2.13025">
        <ele>104</ele>
        <time>2013-03-20T01:19:25Z</time>
      </trkpt>
      <trkpt lat="47.8637" lon="2.13108">
        <ele>103</ele>
        <time>2013-03-20T01:19:33Z</time>
      </trkpt>
      <trkpt lat="47.86348" lon="2.13157">
        <ele>103</ele>
        <time>2013-03-20T01:19:38Z</time>
      </trkpt>
      <trkpt lat="47.86352" lon="2.13179">
        <ele>102</ele>
        <time>2013-03-20T01:19:41Z</time>
      </trkpt>
      <trkpt lat="47.86356" lon="2.1319">
        <ele>102</ele>
        <time>2013-03-20T01:19:42Z</time>
      </trkpt>
      <trkpt lat="47.86322" lon="2.13222">
        <ele>102</ele>
        <time>2013-03-20T01:19:47Z</time>
      </trkpt>
      <trkpt lat="47.86233" lon="2.13262">
        <ele>102</ele>
        <time>2013-03-20T01:19:59Z</time>
      </trkpt>
      <trkpt lat="47.86132" lon="2.13301">
        <ele>102</ele>
        <time>2013-03-20T01:20:13Z</time>
      </trkpt>
      <trkpt lat="47.86049" lon="2.13309">
        <ele>102</ele>
        <time>2013-03-20T01:20:26Z</time>
      </trkpt>
      <trkpt lat="47.86028" lon="2.13316">
        <ele>103</ele>
        <time>2013-03-20T01:20:30Z</time>
      </trkpt>
      <trkpt lat="47.86005" lon="2.13322">
        <ele>103</ele>
        <time>2013-03-20T01:20:33Z</time>
      </trkpt>
      <trkpt lat="47.86002" lon="2.13329">
        <ele>103</ele>
        <time>2013-03-20T01:20:34Z</time>
      </trkpt>
      <trkpt lat="47.85993" lon="2.13346">
        <ele>103</ele>
        <time>2013-03-20T01:20:36Z</time>
      </trkpt>
      <trkpt lat="47.85941" lon="2.1342">
        <ele>104</ele>
        <time>2013-03-20T01:20:48Z</time>
      </trkpt>
      <trkpt lat="47.85806" lon="2.13594">
        <ele>104</ele>
        <time>2013-03-20T01:21:11Z</time>
      </trkpt>
      <trkpt lat="47.85728" lon="2.13694">
        <ele>103</ele>
        <time>2013-03-20T01:21:25Z</time>
      </trkpt>
      <trkpt lat="47.85718" lon="2.137">
        <ele>103</ele>
        <time>2013-03-20T01:21:27Z</time>
      </trkpt>
      <trkpt lat="47.85695" lon="2.13696">
        <ele>103</ele>
        <time>2013-03-20T01:21:30Z</time>
      </trkpt>
      <trkpt lat="47.85622" lon="2.13664">
        <ele>104</ele>
        <time>2013-03-20T01:21:42Z</time>
      </trkpt>
      <trkpt lat="47.85615" lon="2.13665">
        <ele>104</ele>
        <time>2013-03-20T01:21:43Z</time>
      </trkpt>
      <trkpt lat="47.85611" lon="2.13679">
        <ele>104</ele>
        <time>2013-03-20T01:21:45Z</time>
      </trkpt>
      <trkpt lat="47.85628" lon="2.1374">
        <ele>104</ele>
        <time>2013-03-20T01:21:50Z</time>
      </trkpt>
      <trkpt lat="47.85636" lon="2.13788">
        <ele>104</ele>
        <time>2013-03-20T01:21:55Z</time>
      </trkpt>
      <trkpt lat="47.85622" lon="2.13817">
        <ele>104</ele>
        <time>2013-03-20T01:21:58Z</time>
      </trkpt>
      <trkpt lat="47.85525" lon="2.13933">
        <ele>102</ele>
        <time>2013-03-20T01:22:15Z</time>
      </trkpt>
      <trkpt lat="47.8549" lon="2.1399">
        <ele>102</ele>
        <time>2013-03-20T01:22:22Z</time>
      </trkpt>
      <trkpt lat="47.85371" lon="2.14187">
        <ele>103</ele>
        <time>2013-03-20T01:22:48Z</time>
      </trkpt>
      <trkpt lat="47.85289" lon="2.14308">
        <ele>104</ele>
        <time>2013-03-20T01:23:06Z</time>
      </trkpt>
      <trkpt lat="47.85219" lon="2.14387">
        <ele>103</ele>
        <time>2013-03-20T01:23:17Z</time>
      </trkpt>
      <trkpt lat="47.85134" lon="2.14495">
        <ele>102</ele>
        <time>2013-03-20T01:23:32Z</time>
      </trkpt>
      <trkpt lat="47.85024" lon="2.14654">
        <ele>102</ele>
        <time>2013-03-20T01:23:53Z</time>
      </trkpt>
      <trkpt lat="47.84988" lon="2.14728">
        <ele>101</ele>
        <time>2013-03-20T01:24:01Z</time>
      </trkpt>
      <trkpt lat="47.84969" lon="2.14829">
        <ele>101</ele>
        <time>2013-03-20T01:24:10Z</time>
      </trkpt>
      <trkpt lat="47.84971" lon="2.14965">
        <ele>101</ele>
        <time>2013-03-20T01:24:23Z</time>
      </trkpt>
      <trkpt lat="47.84971" lon="2.15072">
        <ele>102</ele>
        <time>2013-03-20T01:24:35Z</time>
      </trkpt>
      <trkpt lat="47.84962" lon="2.15137">
        <ele>103</ele>
        <time>2013-03-20T01:24:43Z</time>
      </trkpt>
      <trkpt lat="47.84959" lon="2.15181">
        <ele>103</ele>
        <time>2013-03-20T01:24:47Z</time>
      </trkpt>
      <trkpt lat="47.8496" lon="2.15202">
        <ele>103</ele>
        <time>2013-03-20T01:24:49Z</time>
      </trkpt>
      <trkpt lat="47.84984" lon="2.1532">
        <ele>103</ele>
        <time>2013-03-20T01:25:00Z</time>
      </trkpt>
      <trkpt lat="47.84984" lon="2.1532">
        <ele>103</ele>
        <time>2013-03-20T01:25:01Z</time>
      </trkpt>
      <trkpt lat="47.85003" lon="2.15416">
        <ele>102</ele>
        <time>2013-03-20T01:25:10Z</time>
      </trkpt>
      <trkpt lat="47.85003" lon="2.15437">
        <ele>102</ele>
        <time>2013-03-20T01:25:12Z</time>
      </trkpt>
      <trkpt lat="47.85001" lon="2.15454">
        <ele>102</ele>
        <time>2013-03-20T01:25:13Z</time>
      </trkpt>
      <trkpt lat="47.85021" lon="2.15593">
        <ele>102</ele>
        <time>2013-03-20T01:25:26Z</time>
      </trkpt>
      <trkpt lat="47.85023" lon="2.1564">
        <ele>102</ele>
        <time>2013-03-20T01:25:31Z</time>
      </trkpt>
      <trkpt lat="47.85014" lon="2.15778">
        <ele>103</ele>
        <time>2013-03-20T01:25:45Z</time>
      </trkpt>
      <trkpt lat="47.85004" lon="2.15883">
        <ele>102</ele>
        <time>2013-03-20T01:25:54Z</time>
      </trkpt>
      <trkpt lat="47.84988" lon="2.15956">
        <ele>102</ele>
        <time>2013-03-20T01:26:01Z</time>
      </trkpt>
      <trkpt lat="47.84906" lon="2.1631">
        <ele>105</ele>
        <time>2013-03-20T01:26:42Z</time>
      </trkpt>
      <trkpt lat="47.84861" lon="2.16526">
        <ele>103</ele>
        <time>2013-03-20T01:27:02Z</time>
      </trkpt>
      <trkpt lat="47.84818" lon="2.16796">
        <ele>104</ele>
        <time>2013-03-20T01:27:30Z</time>
      </trkpt>
      <trkpt lat="47.84807" lon="2.16941">
        <ele>104</ele>
        <time>2013-03-20T01:27:43Z</time>
      </trkpt>
      <trkpt lat="47.848" lon="2.17106">
        <ele>102</ele>
        <time>2013-03-20T01:27:58Z</time>
      </trkpt>
      <trkpt lat="47.84813" lon="2.17369">
        <ele>101</ele>
        <time>2013-03-20T01:28:21Z</time>
      </trkpt>
      <trkpt lat="47.84818" lon="2.17542">
        <ele>100</ele>
        <time>2013-03-20T01:28:37Z</time>
      </trkpt>
      <trkpt lat="47.84812" lon="2.17639">
        <ele>98</ele>
        <time>2013-03-20T01:28:45Z</time>
      </trkpt>
      <trkpt lat="47.84803" lon="2.17761">
        <ele>96</ele>
        <time>2013-03-20T01:28:56Z</time>
      </trkpt>
      <trkpt lat="47.84795" lon="2.17807">
        <ele>96</ele>
        <time>2013-03-20T01:29:03Z</time>
      </trkpt>
      <trkpt lat="47.84784" lon="2.17841">
        <ele>97</ele>
        <time>2013-03-20T01:29:08Z</time>
      </trkpt>
      <trkpt lat="47.84754" lon="2.17897">
        <ele>99</ele>
        <time>2013-03-20T01:29:18Z</time>
      </trkpt>
      <trkpt lat="47.84739" lon="2.17913">
        <ele>99</ele>
        <time>2013-03-20T01:29:21Z</time>
      </trkpt>
      <trkpt lat="47.84731" lon="2.17915">
        <ele>99</ele>
        <time>2013-03-20T01:29:23Z</time>
      </trkpt>
      <trkpt lat="47.84702" lon="2.17909">
        <ele>100</ele>
        <time>2013-03-20T01:29:29Z</time>
      </trkpt>
      <trkpt lat="47.84682" lon="2.1791">
        <ele>101</ele>
        <time>2013-03-20T01:29:33Z</time>
      </trkpt>
      <trkpt lat="47.84667" lon="2.1791">
        <ele>101</ele>
        <time>2013-03-20T01:29:36Z</time>
      </trkpt>
      <trkpt lat="47.84651" lon="2.17919">
        <ele>102</ele>
        <time>2013-03-20T01:29:39Z</time>
      </trkpt>
      <trkpt lat="47.84632" lon="2.17929">
        <ele>102</ele>
        <time>2013-03-20T01:29:42Z</time>
      </trkpt>
      <trkpt lat="47.84617" lon="2.17952">
        <ele>102</ele>
        <time>2013-03-20T01:29:45Z</time>
      </trkpt>
      <trkpt lat="47.84605" lon="2.17972">
        <ele>102</ele>
        <time>2013-03-20T01:29:47Z</time>
      </trkpt>
      <trkpt lat="47.84594" lon="2.18003">
        <ele>102</ele>
        <time>2013-03-20T01:29:50Z</time>
      </trkpt>
      <trkpt lat="47.84591" lon="2.18036">
        <ele>102</ele>
        <time>2013-03-20T01:29:53Z</time>
      </trkpt>
      <trkpt lat="47.84597" lon="2.18084">
        <ele>101</ele>
        <time>2013-03-20T01:29:58Z</time>
      </trkpt>
      <trkpt lat="47.84618" lon="2.18228">
        <ele>101</ele>
        <time>2013-03-20T01:30:11Z</time>
      </trkpt>
      <trkpt lat="47.8462" lon="2.18251">
        <ele>100</ele>
        <time>2013-03-20T01:30:13Z</time>
      </trkpt>
      <trkpt lat="47.84618" lon="2.18283">
        <ele>99</ele>
        <time>2013-03-20T01:30:16Z</time>
      </trkpt>
      <trkpt lat="47.84593" lon="2.18474">
        <ele>94</ele>
        <time>2013-03-20T01:30:33Z</time>
      </trkpt>
      <trkpt lat="47.84586" lon="2.18604">
        <ele>98</ele>
        <time>2013-03-20T01:30:57Z</time>
      </trkpt>
      <trkpt lat="47.84581" lon="2.18684">
        <ele>102</ele>
        <time>2013-03-20T01:31:12Z</time>
      </trkpt>
      <trkpt lat="47.84579" lon="2.18731">
        <ele>101</ele>
        <time>2013-03-20T01:31:16Z</time>
      </trkpt>
      <trkpt lat="47.84576" lon="2.18887">
        <ele>101</ele>
        <time>2013-03-20T01:31:30Z</time>
      </trkpt>
      <trkpt lat="47.84581" lon="2.19079">
        <ele>101</ele>
        <time>2013-03-20T01:31:47Z</time>
      </trkpt>
      <trkpt lat="47.84603" lon="2.19313">
        <ele>99</ele>
        <time>2013-03-20T01:32:08Z</time>
      </trkpt>
      <trkpt lat="47.8461" lon="2.19376">
        <ele>99</ele>
        <time>2013-03-20T01:32:15Z</time>
      </trkpt>
      <trkpt lat="47.84683" lon="2.1972">
        <ele>103</ele>
        <time>2013-03-20T01:32:56Z</time>
      </trkpt>
      <trkpt lat="47.84752" lon="2.20038">
        <ele>103</ele>
        <time>2013-03-20T01:33:26Z</time>
      </trkpt>
      <trkpt lat="47.84747" lon="2.20299">
        <ele>103</ele>
        <time>2013-03-20T01:33:49Z</time>
      </trkpt>
      <trkpt lat="47.84677" lon="2.20617">
        <ele>103</ele>
        <time>2013-03-20T01:34:19Z</time>
      </trkpt>
      <trkpt lat="47.84659" lon="2.20753">
        <ele>104</ele>
        <time>2013-03-20T01:34:34Z</time>
      </trkpt>
      <trkpt lat="47.84676" lon="2.20763">
        <ele>103</ele>
        <time>2013-03-20T01:34:37Z</time>
      </trkpt>
      <trkpt lat="47.84864" lon="2.20839">
        <ele>103</ele>
        <time>2013-03-20T01:35:03Z</time>
      </trkpt>
      <trkpt lat="47.84895" lon="2.20853">
        <ele>103</ele>
        <time>2013-03-20T01:35:07Z</time>
      </trkpt>
      <trkpt lat="47.84979" lon="2.2097">
        <ele>104</ele>
        <time>2013-03-20T01:35:25Z</time>
      </trkpt>
      <trkpt lat="47.85002" lon="2.20999">
        <ele>103</ele>
        <time>2013-03-20T01:35:29Z</time>
      </trkpt>
      <trkpt lat="47.85116" lon="2.21192">
        <ele>103</ele>
        <time>2013-03-20T01:35:52Z</time>
      </trkpt>
      <trkpt lat="47.85202" lon="2.21378">
        <ele>103</ele>
        <time>2013-03-20T01:36:12Z</time>
      </trkpt>
      <trkpt lat="47.8526" lon="2.2152">
        <ele>103</ele>
        <time>2013-03-20T01:36:27Z</time>
      </trkpt>
      <trkpt lat="47.85282" lon="2.21599">
        <ele>103</ele>
        <time>2013-03-20T01:36:34Z</time>
      </trkpt>
      <trkpt lat="47.85319" lon="2.21696">
        <ele>103</ele>
        <time>2013-03-20T01:36:44Z</time>
      </trkpt>
      <trkpt lat="47.85361" lon="2.2178">
        <ele>103</ele>
        <time>2013-03-20T01:36:56Z</time>
      </trkpt>
      <trkpt lat="47.85383" lon="2.21819">
        <ele>104</ele>
        <time>2013-03-20T01:37:01Z</time>
      </trkpt>
      <trkpt lat="47.85468" lon="2.21969">
        <ele>106</ele>
        <time>2013-03-20T01:37:23Z</time>
      </trkpt>
      <trkpt lat="47.85546" lon="2.22151">
        <ele>108</ele>
        <time>2013-03-20T01:37:47Z</time>
      </trkpt>
      <trkpt lat="47.85593" lon="2.22241">
        <ele>105</ele>
        <time>2013-03-20T01:37:58Z</time>
      </trkpt>
      <trkpt lat="47.85616" lon="2.22321">
        <ele>104</ele>
        <time>2013-03-20T01:38:05Z</time>
      </trkpt>
      <trkpt lat="47.85621" lon="2.2236">
        <ele>102</ele>
        <time>2013-03-20T01:38:09Z</time>
      </trkpt>
      <trkpt lat="47.85682" lon="2.22354">
        <ele>100</ele>
        <time>2013-03-20T01:38:17Z</time>
      </trkpt>
      <trkpt lat="47.8573" lon="2.2235">
        <ele>98</ele>
        <time>2013-03-20T01:38:24Z</time>
      </trkpt>
      <trkpt lat="47.85988" lon="2.22324">
        <ele>105</ele>
        <time>2013-03-20T01:39:15Z</time>
      </trkpt>
      <trkpt lat="47.8599" lon="2.22323">
        <ele>105</ele>
        <time>2013-03-20T01:39:15Z</time>
      </trkpt>
      <trkpt lat="47.85997" lon="2.22327">
        <ele>105</ele>
        <time>2013-03-20T01:39:17Z</time>
      </trkpt>
      <trkpt lat="47.85999" lon="2.2233">
        <ele>105</ele>
        <time>2013-03-20T01:39:17Z</time>
      </trkpt>
      <trkpt lat="47.85994" lon="2.2236">
        <ele>106</ele>
        <time>2013-03-20T01:39:22Z</time>
      </trkpt>
      <trkpt lat="47.85993" lon="2.22407">
        <ele>106</ele>
        <time>2013-03-20T01:39:28Z</time>
      </trkpt>
      <trkpt lat="47.85996" lon="2.22554">
        <ele>110</ele>
        <time>2013-03-20T01:39:49Z</time>
      </trkpt>
      <trkpt lat="47.8599" lon="2.22646">
        <ele>111</ele>
        <time>2013-03-20T01:40:00Z</time>
      </trkpt>
      <trkpt lat="47.8597" lon="2.22906">
        <ele>115</ele>
        <time>2013-03-20T01:40:32Z</time>
      </trkpt>
      <trkpt lat="47.85944" lon="2.2305">
        <ele>117</ele>
        <time>2013-03-20T01:40:51Z</time>
      </trkpt>
      <trkpt lat="47.85897" lon="2.23281">
        <ele>109</ele>
        <time>2013-03-20T01:41:12Z</time>
      </trkpt>
      <trkpt lat="47.85894" lon="2.23294">
        <ele>109</ele>
        <time>2013-03-20T01:41:14Z</time>
      </trkpt>
      <trkpt lat="47.85894" lon="2.23294">
        <ele>109</ele>
        <time>2013-03-20T01:41:15Z</time>
      </trkpt>
      <trkpt lat="47.85858" lon="2.23484">
        <ele>116</ele>
        <time>2013-03-20T01:41:49Z</time>
      </trkpt>
      <trkpt lat="47.85823" lon="2.23647">
        <ele>114</ele>
        <time>2013-03-20T01:42:04Z</time>
      </trkpt>
      <trkpt lat="47.85784" lon="2.23808">
        <ele>113</ele>
        <time>2013-03-20T01:42:20Z</time>
      </trkpt>
      <trkpt lat="47.85809" lon="2.23814">
        <ele>114</ele>
        <time>2013-03-20T01:42:26Z</time>
      </trkpt>
      <trkpt lat="47.85877" lon="2.23811">
        <ele>118</ele>
        <time>2013-03-20T01:42:44Z</time>
      </trkpt>
      <trkpt lat="47.85926" lon="2.23821">
        <ele>120</ele>
        <time>2013-03-20T01:42:57Z</time>
      </trkpt>
      <trkpt lat="47.85976" lon="2.23814">
        <ele>123</ele>
        <time>2013-03-20T01:43:09Z</time>
      </trkpt>
      <trkpt lat="47.86" lon="2.23811">
        <ele>123</ele>
        <time>2013-03-20T01:43:13Z</time>
      </trkpt>
      <trkpt lat="47.86051" lon="2.23823">
        <ele>123</ele>
        <time>2013-03-20T01:43:20Z</time>
      </trkpt>
      <trkpt lat="47.86059" lon="2.23813">
        <ele>123</ele>
        <time>2013-03-20T01:43:21Z</time>
      </trkpt>
      <trkpt lat="47.86065" lon="2.23805">
        <ele>123</ele>
        <time>2013-03-20T01:43:22Z</time>
      </trkpt>
      <trkpt lat="47.86081" lon="2.238">
        <ele>123</ele>
        <time>2013-03-20T01:43:24Z</time>
      </trkpt>
      <trkpt lat="47.86082" lon="2.23828">
        <ele>123</ele>
        <time>2013-03-20T01:43:27Z</time>
      </trkpt>
      <trkpt lat="47.86084" lon="2.2386">
        <ele>123</ele>
        <time>2013-03-20T01:43:30Z</time>
      </trkpt>
      <trkpt lat="47.861" lon="2.24084">
        <ele>123</ele>
        <time>2013-03-20T01:43:50Z</time>
      </trkpt>
      <trkpt lat="47.86259" lon="2.2416">
        <ele>123</ele>
        <time>2013-03-20T01:44:12Z</time>
      </trkpt>
      <trkpt lat="47.86401" lon="2.24239">
        <ele>123</ele>
        <time>2013-03-20T01:44:32Z</time>
      </trkpt>
      <trkpt lat="47.86455" lon="2.2427">
        <ele>124</ele>
        <time>2013-03-20T01:44:43Z</time>
      </trkpt>
      <trkpt lat="47.86503" lon="2.2429">
        <ele>125</ele>
        <time>2013-03-20T01:44:52Z</time>
      </trkpt>
      <trkpt lat="47.86628" lon="2.24285">
        <ele>125</ele>
        <time>2013-03-20T01:45:08Z</time>
      </trkpt>
      <trkpt lat="47.86644" lon="2.24264">
        <ele>124</ele>
        <time>2013-03-20T01:45:11Z</time>
      </trkpt>
      <trkpt lat="47.86651" lon="2.24176">
        <ele>124</ele>
        <time>2013-03-20T01:45:19Z</time>
      </trkpt>
      <trkpt lat="47.86659" lon="2.24147">
        <ele>124</ele>
        <time>2013-03-20T01:45:22Z</time>
      </trkpt>
      <trkpt lat="47.86678" lon="2.24155">
        <ele>124</ele>
        <time>2013-03-20T01:45:25Z</time>
      </trkpt>
      <trkpt lat="47.86686" lon="2.24158">
        <ele>124</ele>
        <time>2013-03-20T01:45:26Z</time>
      </trkpt>
      <trkpt lat="47.86695" lon="2.24165">
        <ele>124</ele>
        <time>2013-03-20T01:45:28Z</time>
      </trkpt>
      <trkpt lat="47.86757" lon="2.24279">
        <ele>125</ele>
        <time>2013-03-20T01:45:42Z</time>
      </trkpt>
      <trkpt lat="47.86776" lon="2.24289">
        <ele>124</ele>
        <time>2013-03-20T01:45:45Z</time>
      </trkpt>
      <trkpt lat="47.8686" lon="2.24319">
        <ele>124</ele>
        <time>2013-03-20T01:45:57Z</time>
      </trkpt>
      <trkpt lat="47.86969" lon="2.24361">
        <ele>124</ele>
        <time>2013-03-20T01:46:12Z</time>
      </trkpt>
      <trkpt lat="47.87203" lon="2.24453">
        <ele>127</ele>
        <time>2013-03-20T01:46:51Z</time>
      </trkpt>
      <trkpt lat="47.87277" lon="2.2452">
        <ele>126</ele>
        <time>2013-03-20T01:47:03Z</time>
      </trkpt>
      <trkpt lat="47.87311" lon="2.24518">
        <ele>126</ele>
        <time>2013-03-20T01:47:07Z</time>
      </trkpt>
      <trkpt lat="47.87365" lon="2.24533">
        <ele>125</ele>
        <time>2013-03-20T01:47:15Z</time>
      </trkpt>
      <trkpt lat="47.87577" lon="2.24647">
        <ele>124</ele>
        <time>2013-03-20T01:47:45Z</time>
      </trkpt>
      <trkpt lat="47.87852" lon="2.24865">
        <ele>123</ele>
        <time>2013-03-20T01:48:26Z</time>
      </trkpt>
      <trkpt lat="47.87899" lon="2.2491">
        <ele>122</ele>
        <time>2013-03-20T01:48:34Z</time>
      </trkpt>
      <trkpt lat="47.87996" lon="2.24964">
        <ele>122</ele>
        <time>2013-03-20T01:48:48Z</time>
      </trkpt>
      <trkpt lat="47.88042" lon="2.25023">
        <ele>122</ele>
        <time>2013-03-20T01:48:56Z</time>
      </trkpt>
      <trkpt lat="47.88099" lon="2.25096">
        <ele>122</ele>
        <time>2013-03-20T01:49:06Z</time>
      </trkpt>
      <trkpt lat="47.88104" lon="2.25106">
        <ele>121</ele>
        <time>2013-03-20T01:49:07Z</time>
      </trkpt>
      <trkpt lat="47.88136" lon="2.25169">
        <ele>121</ele>
        <time>2013-03-20T01:49:14Z</time>
      </trkpt>
      <trkpt lat="47.88337" lon="2.25534">
        <ele>120</ele>
        <time>2013-03-20T01:49:56Z</time>
      </trkpt>
      <trkpt lat="47.88406" lon="2.25657">
        <ele>122</ele>
        <time>2013-03-20T01:50:16Z</time>
      </trkpt>
      <trkpt lat="47.88502" lon="2.2583">
        <ele>124</ele>
        <time>2013-03-20T01:50:41Z</time>
      </trkpt>
      <trkpt lat="47.88522" lon="2.25866">
        <ele>124</ele>
        <time>2013-03-20T01:50:45Z</time>
      </trkpt>
      <trkpt lat="47.88869" lon="2.2579">
        <ele>124</ele>
        <time>2013-03-20T01:51:32Z</time>
      </trkpt>
      <trkpt lat="47.88925" lon="2.25788">
        <ele>123</ele>
        <time>2013-03-20T01:51:39Z</time>
      </trkpt>
      <trkpt lat="47.89109" lon="2.25927">
        <ele>122</ele>
        <time>2013-03-20T01:52:07Z</time>
      </trkpt>
      <trkpt lat="47.89168" lon="2.2599">
        <ele>124</ele>
        <time>2013-03-20T01:52:22Z</time>
      </trkpt>
      <trkpt lat="47.89194" lon="2.25995">
        <ele>125</ele>
        <time>2013-03-20T01:52:27Z</time>
      </trkpt>
      <trkpt lat="47.89231" lon="2.2599">
        <ele>125</ele>
        <time>2013-03-20T01:52:32Z</time>
      </trkpt>
      <trkpt lat="47.89674" lon="2.25734">
        <ele>128</ele>
        <time>2013-03-20T01:53:43Z</time>
      </trkpt>
      <trkpt lat="47.90226" lon="2.25392">
        <ele>135</ele>
        <time>2013-03-20T01:55:19Z</time>
      </trkpt>
      <trkpt lat="47.91377" lon="2.25379">
        <ele>135</ele>
        <time>2013-03-20T01:57:53Z</time>
      </trkpt>
      <trkpt lat="47.9151" lon="2.2547">
        <ele>137</ele>
        <time>2013-03-20T01:58:17Z</time>
      </trkpt>
      <trkpt lat="47.91663" lon="2.25581">
        <ele>135</ele>
        <time>2013-03-20T01:58:40Z</time>
      </trkpt>
      <trkpt lat="47.91754" lon="2.25648">
        <ele>130</ele>
        <time>2013-03-20T01:58:54Z</time>
      </trkpt>
      <trkpt lat="47.91841" lon="2.25645">
        <ele>128</ele>
        <time>2013-03-20T01:59:05Z</time>
      </trkpt>
      <trkpt lat="47.9199" lon="2.25662">
        <ele>125</ele>
        <time>2013-03-20T01:59:25Z</time>
      </trkpt>
      <trkpt lat="47.92148" lon="2.25703">
        <ele>124</ele>
        <time>2013-03-20T01:59:47Z</time>
      </trkpt>
      <trkpt lat="47.92213" lon="2.25697">
        <ele>124</ele>
        <time>2013-03-20T01:59:56Z</time>
      </trkpt>
      <trkpt lat="47.92296" lon="2.25691">
        <ele>125</ele>
        <time>2013-03-20T02:00:09Z</time>
      </trkpt>
      <trkpt lat="47.92621" lon="2.25824">
        <ele>122</ele>
        <time>2013-03-20T02:00:54Z</time>
      </trkpt>
      <trkpt lat="47.92699" lon="2.25876">
        <ele>120</ele>
        <time>2013-03-20T02:01:05Z</time>
      </trkpt>
      <trkpt lat="47.92791" lon="2.25947">
        <ele>119</ele>
        <time>2013-03-20T02:01:19Z</time>
      </trkpt>
      <trkpt lat="47.93014" lon="2.26031">
        <ele>118</ele>
        <time>2013-03-20T02:01:50Z</time>
      </trkpt>
      <trkpt lat="47.93093" lon="2.26099">
        <ele>119</ele>
        <time>2013-03-20T02:02:04Z</time>
      </trkpt>
      <trkpt lat="47.93158" lon="2.26163">
        <ele>119</ele>
        <time>2013-03-20T02:02:15Z</time>
      </trkpt>
      <trkpt lat="47.93251" lon="2.263">
        <ele>119</ele>
        <time>2013-03-20T02:02:32Z</time>
      </trkpt>
      <trkpt lat="47.93319" lon="2.26366">
        <ele>118</ele>
        <time>2013-03-20T02:02:43Z</time>
      </trkpt>
      <trkpt lat="47.93344" lon="2.26406">
        <ele>118</ele>
        <time>2013-03-20T02:02:48Z</time>
      </trkpt>
      <trkpt lat="47.93361" lon="2.2644">
        <ele>118</ele>
        <time>2013-03-20T02:02:52Z</time>
      </trkpt>
      <trkpt lat="47.93361" lon="2.2644">
        <ele>118</ele>
        <time>2013-03-20T02:02:53Z</time>
      </trkpt>
      <trkpt lat="47.93376" lon="2.26473">
        <ele>118</ele>
        <time>2013-03-20T02:02:56Z</time>
      </trkpt>
      <trkpt lat="47.93392" lon="2.26496">
        <ele>118</ele>
        <time>2013-03-20T02:02:59Z</time>
      </trkpt>
      <trkpt lat="47.93414" lon="2.26542">
        <ele>118</ele>
        <time>2013-03-20T02:03:04Z</time>
      </trkpt>
      <trkpt lat="47.93451" lon="2.26623">
        <ele>118</ele>
        <time>2013-03-20T02:03:13Z</time>
      </trkpt>
      <trkpt lat="47.93471" lon="2.26658">
        <ele>118</ele>
        <time>2013-03-20T02:03:17Z</time>
      </trkpt>
      <trkpt lat="47.93473" lon="2.26662">
        <ele>118</ele>
        <time>2013-03-20T02:03:18Z</time>
      </trkpt>
      <trkpt lat="47.93492" lon="2.26685">
        <ele>118</ele>
        <time>2013-03-20T02:03:21Z</time>
      </trkpt>
      <trkpt lat="47.93517" lon="2.26705">
        <ele>118</ele>
        <time>2013-03-20T02:03:25Z</time>
      </trkpt>
      <trkpt lat="47.93561" lon="2.26734">
        <ele>118</ele>
        <time>2013-03-20T02:03:31Z</time>
      </trkpt>
      <trkpt lat="47.9361" lon="2.26749">
        <ele>116</ele>
        <time>2013-03-20T02:03:38Z</time>
      </trkpt>
      <trkpt lat="47.93633" lon="2.26748">
        <ele>116</ele>
        <time>2013-03-20T02:03:41Z</time>
      </trkpt>
      <trkpt lat="47.9365" lon="2.26748">
        <ele>115</ele>
        <time>2013-03-20T02:03:43Z</time>
      </trkpt>
      <trkpt lat="47.9369" lon="2.26745">
        <ele>115</ele>
        <time>2013-03-20T02:03:49Z</time>
      </trkpt>
      <trkpt lat="47.93717" lon="2.2674">
        <ele>115</ele>
        <time>2013-03-20T02:03:54Z</time>
      </trkpt>
      <trkpt lat="47.93722" lon="2.26741">
        <ele>115</ele>
        <time>2013-03-20T02:03:55Z</time>
      </trkpt>
      <trkpt lat="47.93726" lon="2.2674">
        <ele>115</ele>
        <time>2013-03-20T02:03:56Z</time>
      </trkpt>
      <trkpt lat="47.93759" lon="2.26734">
        <ele>116</ele>
        <time>2013-03-20T02:04:02Z</time>
      </trkpt>
      <trkpt lat="47.93843" lon="2.26688">
        <ele>119</ele>
        <time>2013-03-20T02:04:19Z</time>
      </trkpt>
      <trkpt lat="47.93904" lon="2.26656">
        <ele>119</ele>
        <time>2013-03-20T02:04:30Z</time>
      </trkpt>
      <trkpt lat="47.93946" lon="2.2663">
        <ele>120</ele>
        <time>2013-03-20T02:04:37Z</time>
      </trkpt>
      <trkpt lat="47.93961" lon="2.26624">
        <ele>120</ele>
        <time>2013-03-20T02:04:39Z</time>
      </trkpt>
      <trkpt lat="47.94028" lon="2.26621">
        <ele>120</ele>
        <time>2013-03-20T02:04:48Z</time>
      </trkpt>
      <trkpt lat="47.94033" lon="2.26621">
        <ele>120</ele>
        <time>2013-03-20T02:04:49Z</time>
      </trkpt>
      <trkpt lat="47.94211" lon="2.26616">
        <ele>121</ele>
        <time>2013-03-20T02:05:14Z</time>
      </trkpt>
      <trkpt lat="47.94306" lon="2.26615">
        <ele>123</ele>
        <time>2013-03-20T02:05:32Z</time>
      </trkpt>
      <trkpt lat="47.94349" lon="2.26604">
        <ele>123</ele>
        <time>2013-03-20T02:05:38Z</time>
      </trkpt>
      <trkpt lat="47.94461" lon="2.26577">
        <ele>123</ele>
        <time>2013-03-20T02:05:53Z</time>
      </trkpt>
      <trkpt lat="47.9463" lon="2.26531">
        <ele>123</ele>
        <time>2013-03-20T02:06:16Z</time>
      </trkpt>
      <trkpt lat="47.94671" lon="2.2652">
        <ele>123</ele>
        <time>2013-03-20T02:06:22Z</time>
      </trkpt>
      <trkpt lat="47.94722" lon="2.26507">
        <ele>124</ele>
        <time>2013-03-20T02:06:31Z</time>
      </trkpt>
      <trkpt lat="47.94772" lon="2.26495">
        <ele>125</ele>
        <time>2013-03-20T02:06:40Z</time>
      </trkpt>
      <trkpt lat="47.94847" lon="2.26477">
        <ele>127</ele>
        <time>2013-03-20T02:06:55Z</time>
      </trkpt>
      <trkpt lat="47.94979" lon="2.26444">
        <ele>132</ele>
        <time>2013-03-20T02:07:25Z</time>
      </trkpt>
      <trkpt lat="47.95049" lon="2.2645">
        <ele>133</ele>
        <time>2013-03-20T02:07:37Z</time>
      </trkpt>
      <trkpt lat="47.95327" lon="2.26473">
        <ele>139</ele>
        <time>2013-03-20T02:08:28Z</time>
      </trkpt>
      <trkpt lat="47.95536" lon="2.26455">
        <ele>131</ele>
        <time>2013-03-20T02:08:56Z</time>
      </trkpt>
      <trkpt lat="47.95974" lon="2.26414">
        <ele>135</ele>
        <time>2013-03-20T02:10:04Z</time>
      </trkpt>
      <trkpt lat="47.96249" lon="2.26662">
        <ele>133</ele>
        <time>2013-03-20T02:10:47Z</time>
      </trkpt>
      <trkpt lat="47.96343" lon="2.26756">
        <ele>133</ele>
        <time>2013-03-20T02:11:02Z</time>
      </trkpt>
      <trkpt lat="47.96424" lon="2.2679">
        <ele>133</ele>
        <time>2013-03-20T02:11:16Z</time>
      </trkpt>
      <trkpt lat="47.96602" lon="2.26863">
        <ele>136</ele>
        <time>2013-03-20T02:11:45Z</time>
      </trkpt>
      <trkpt lat="47.96674" lon="2.26867">
        <ele>136</ele>
        <time>2013-03-20T02:11:55Z</time>
      </trkpt>
      <trkpt lat="47.96769" lon="2.26914">
        <ele>136</ele>
        <time>2013-03-20T02:12:08Z</time>
      </trkpt>
      <trkpt lat="47.96944" lon="2.27014">
        <ele>133</ele>
        <time>2013-03-20T02:12:33Z</time>
      </trkpt>
      <trkpt lat="47.97001" lon="2.27069">
        <ele>133</ele>
        <time>2013-03-20T02:12:44Z</time>
      </trkpt>
      <trkpt lat="47.97228" lon="2.2724">
        <ele>136</ele>
        <time>2013-03-20T02:13:24Z</time>
      </trkpt>
      <trkpt lat="47.97351" lon="2.27336">
        <ele>133</ele>
        <time>2013-03-20T02:13:42Z</time>
      </trkpt>
      <trkpt lat="47.97464" lon="2.27343">
        <ele>134</ele>
        <time>2013-03-20T02:14:00Z</time>
      </trkpt>
      <trkpt lat="47.97837" lon="2.2726">
        <ele>133</ele>
        <time>2013-03-20T02:14:50Z</time>
      </trkpt>
      <trkpt lat="47.98017" lon="2.27305">
        <ele>134</ele>
        <time>2013-03-20T02:15:17Z</time>
      </trkpt>
      <trkpt lat="47.98101" lon="2.27361">
        <ele>134</ele>
        <time>2013-03-20T02:15:29Z</time>
      </trkpt>
      <trkpt lat="47.98203" lon="2.27536">
        <ele>134</ele>
        <time>2013-03-20T02:15:50Z</time>
      </trkpt>
      <trkpt lat="47.9833" lon="2.27666">
        <ele>138</ele>
        <time>2013-03-20T02:16:20Z</time>
      </trkpt>
      <trkpt lat="47.9838" lon="2.27741">
        <ele>140</ele>
        <time>2013-03-20T02:16:35Z</time>
      </trkpt>
      <trkpt lat="47.98498" lon="2.2787">
        <ele>145</ele>
        <time>2013-03-20T02:17:06Z</time>
      </trkpt>
      <trkpt lat="47.98742" lon="2.28136">
        <ele>149</ele>
        <time>2013-03-20T02:17:56Z</time>
      </trkpt>
      <trkpt lat="47.99317" lon="2.2845">
        <ele>140</ele>
        <time>2013-03-20T02:19:18Z</time>
      </trkpt>
      <trkpt lat="47.99965" lon="2.2876">
        <ele>152</ele>
        <time>2013-03-20T02:21:17Z</time>
      </trkpt>
      <trkpt lat="47.99967" lon="2.28762">
        <ele>151</ele>
        <time>2013-03-20T02:21:18Z</time>
      </trkpt>
      <trkpt lat="48.00109" lon="2.28866">
        <ele>149</ele>
        <time>2013-03-20T02:21:39Z</time>
      </trkpt>
      <trkpt lat="48.00283" lon="2.29011">
        <ele>154</ele>
        <time>2013-03-20T02:22:17Z</time>
      </trkpt>
      <trkpt lat="48.00611" lon="2.2937">
        <ele>152</ele>
        <time>2013-03-20T02:23:12Z</time>
      </trkpt>
      <trkpt lat="48.00643" lon="2.29393">
        <ele>151</ele>
        <time>2013-03-20T02:23:16Z</time>
      </trkpt>
      <trkpt lat="48.0114" lon="2.29562">
        <ele>145</ele>
        <time>2013-03-20T02:24:24Z</time>
      </trkpt>
      <trkpt lat="48.01353" lon="2.29639">
        <ele>150</ele>
        <time>2013-03-20T02:25:06Z</time>
      </trkpt>
      <trkpt lat="48.01472" lon="2.29742">
        <ele>144</ele>
        <time>2013-03-20T02:25:24Z</time>
      </trkpt>
      <trkpt lat="48.01586" lon="2.29837">
        <ele>138</ele>
        <time>2013-03-20T02:25:42Z</time>
      </trkpt>
      <trkpt lat="48.01719" lon="2.29999">
        <ele>138</ele>
        <time>2013-03-20T02:26:04Z</time>
      </trkpt>
      <trkpt lat="48.01976" lon="2.30328">
        <ele>135</ele>
        <time>2013-03-20T02:26:50Z</time>
      </trkpt>
      <trkpt lat="48.02031" lon="2.30341">
        <ele>136</ele>
        <time>2013-03-20T02:27:01Z</time>
      </trkpt>
      <trkpt lat="48.02155" lon="2.30363">
        <ele>140</ele>
        <time>2013-03-20T02:27:26Z</time>
      </trkpt>
      <trkpt lat="48.02212" lon="2.3041">
        <ele>137</ele>
        <time>2013-03-20T02:27:35Z</time>
      </trkpt>
      <trkpt lat="48.02258" lon="2.30429">
        <ele>136</ele>
        <time>2013-03-20T02:27:41Z</time>
      </trkpt>
      <trkpt lat="48.02413" lon="2.30479">
        <ele>133</ele>
        <time>2013-03-20T02:28:02Z</time>
      </trkpt>
      <trkpt lat="48.02438" lon="2.30506">
        <ele>133</ele>
        <time>2013-03-20T02:28:06Z</time>
      </trkpt>
      <trkpt lat="48.0256" lon="2.3065">
        <ele>133</ele>
        <time>2013-03-20T02:28:27Z</time>
      </trkpt>
      <trkpt lat="48.02608" lon="2.30711">
        <ele>133</ele>
        <time>2013-03-20T02:28:36Z</time>
      </trkpt>
      <trkpt lat="48.02828" lon="2.31052">
        <ele>135</ele>
        <time>2013-03-20T02:29:22Z</time>
      </trkpt>
      <trkpt lat="48.0289" lon="2.31101">
        <ele>135</ele>
        <time>2013-03-20T02:29:32Z</time>
      </trkpt>
      <trkpt lat="48.02959" lon="2.31134">
        <ele>135</ele>
        <time>2013-03-20T02:29:42Z</time>
      </trkpt>
      <trkpt lat="48.03009" lon="2.31188">
        <ele>135</ele>
        <time>2013-03-20T02:29:51Z</time>
      </trkpt>
      <trkpt lat="48.03047" lon="2.31249">
        <ele>136</ele>
        <time>2013-03-20T02:30:00Z</time>
      </trkpt>
      <trkpt lat="48.03062" lon="2.31275">
        <ele>135</ele>
        <time>2013-03-20T02:30:03Z</time>
      </trkpt>
      <trkpt lat="48.03071" lon="2.31258">
        <ele>135</ele>
        <time>2013-03-20T02:30:05Z</time>
      </trkpt>
      <trkpt lat="48.0309" lon="2.31229">
        <ele>135</ele>
        <time>2013-03-20T02:30:08Z</time>
      </trkpt>
      <trkpt lat="48.03111" lon="2.31213">
        <ele>135</ele>
        <time>2013-03-20T02:30:11Z</time>
      </trkpt>
      <trkpt lat="48.03967" lon="2.30601">
        <ele>131</ele>
        <time>2013-03-20T02:32:18Z</time>
      </trkpt>
      <trkpt lat="48.0458" lon="2.30163">
        <ele>123</ele>
        <time>2013-03-20T02:33:49Z</time>
      </trkpt>
      <trkpt lat="48.05007" lon="2.29861">
        <ele>121</ele>
        <time>2013-03-20T02:34:52Z</time>
      </trkpt>
      <trkpt lat="48.0508" lon="2.29824">
        <ele>121</ele>
        <time>2013-03-20T02:35:02Z</time>
      </trkpt>
      <trkpt lat="48.0517" lon="2.29795">
        <ele>121</ele>
        <time>2013-03-20T02:35:15Z</time>
      </trkpt>
      <trkpt lat="48.0522" lon="2.29791">
        <ele>120</ele>
        <time>2013-03-20T02:35:21Z</time>
      </trkpt>
      <trkpt lat="48.05285" lon="2.29783">
        <ele>119</ele>
        <time>2013-03-20T02:35:30Z</time>
      </trkpt>
      <trkpt lat="48.05459" lon="2.29734">
        <ele>118</ele>
        <time>2013-03-20T02:35:54Z</time>
      </trkpt>
      <trkpt lat="48.05495" lon="2.29722">
        <ele>117</ele>
        <time>2013-03-20T02:35:59Z</time>
      </trkpt>
      <trkpt lat="48.05647" lon="2.29608">
        <ele>116</ele>
        <time>2013-03-20T02:36:21Z</time>
      </trkpt>
      <trkpt lat="48.05752" lon="2.29693">
        <ele>116</ele>
        <time>2013-03-20T02:36:37Z</time>
      </trkpt>
      <trkpt lat="48.05814" lon="2.29798">
        <ele>114</ele>
        <time>2013-03-20T02:36:50Z</time>
      </trkpt>
      <trkpt lat="48.05821" lon="2.29827">
        <ele>113</ele>
        <time>2013-03-20T02:36:52Z</time>
      </trkpt>
      <trkpt lat="48.05831" lon="2.29903">
        <ele>113</ele>
        <time>2013-03-20T02:36:59Z</time>
      </trkpt>
      <trkpt lat="48.05839" lon="2.29926">
        <ele>113</ele>
        <time>2013-03-20T02:37:02Z</time>
      </trkpt>
      <trkpt lat="48.05855" lon="2.29947">
        <ele>113</ele>
        <time>2013-03-20T02:37:05Z</time>
      </trkpt>
      <trkpt lat="48.05901" lon="2.29954">
        <ele>113</ele>
        <time>2013-03-20T02:37:11Z</time>
      </trkpt>
      <trkpt lat="48.06191" lon="2.29939">
        <ele>114</ele>
        <time>2013-03-20T02:37:52Z</time>
      </trkpt>
      <trkpt lat="48.06225" lon="2.29937">
        <ele>114</ele>
        <time>2013-03-20T02:37:56Z</time>
      </trkpt>
      <trkpt lat="48.06288" lon="2.29919">
        <ele>114</ele>
        <time>2013-03-20T02:38:05Z</time>
      </trkpt>
      <trkpt lat="48.06409" lon="2.29866">
        <ele>115</ele>
        <time>2013-03-20T02:38:24Z</time>
      </trkpt>
      <trkpt lat="48.06453" lon="2.29861">
        <ele>113</ele>
        <time>2013-03-20T02:38:30Z</time>
      </trkpt>
      <trkpt lat="48.06533" lon="2.2989">
        <ele>112</ele>
        <time>2013-03-20T02:38:41Z</time>
      </trkpt>
      <trkpt lat="48.06637" lon="2.29976">
        <ele>111</ele>
        <time>2013-03-20T02:38:57Z</time>
      </trkpt>
      <trkpt lat="48.0675" lon="2.30045">
        <ele>109</ele>
        <time>2013-03-20T02:39:13Z</time>
      </trkpt>
      <trkpt lat="48.06859" lon="2.3003">
        <ele>106</ele>
        <time>2013-03-20T02:39:28Z</time>
      </trkpt>
      <trkpt lat="48.07083" lon="2.29926">
        <ele>109</ele>
        <time>2013-03-20T02:40:06Z</time>
      </trkpt>
      <trkpt lat="48.07125" lon="2.29907">
        <ele>108</ele>
        <time>2013-03-20T02:40:12Z</time>
      </trkpt>
      <trkpt lat="48.07156" lon="2.29893">
        <ele>108</ele>
        <time>2013-03-20T02:40:17Z</time>
      </trkpt>
      <trkpt lat="48.07202" lon="2.29912">
        <ele>108</ele>
        <time>2013-03-20T02:40:23Z</time>
      </trkpt>
      <trkpt lat="48.07221" lon="2.29935">
        <ele>107</ele>
        <time>2013-03-20T02:40:26Z</time>
      </trkpt>
      <trkpt lat="48.07464" lon="2.30096">
        <ele>106</ele>
        <time>2013-03-20T02:41:02Z</time>
      </trkpt>
      <trkpt lat="48.0775" lon="2.30201">
        <ele>105</ele>
        <time>2013-03-20T02:41:41Z</time>
      </trkpt>
      <trkpt lat="48.0784" lon="2.30221">
        <ele>106</ele>
        <time>2013-03-20T02:41:56Z</time>
      </trkpt>
      <trkpt lat="48.08002" lon="2.30211">
        <ele>105</ele>
        <time>2013-03-20T02:42:17Z</time>
      </trkpt>
      <trkpt lat="48.0825" lon="2.30083">
        <ele>103</ele>
        <time>2013-03-20T02:42:52Z</time>
      </trkpt>
      <trkpt lat="48.08311" lon="2.30062">
        <ele>103</ele>
        <time>2013-03-20T02:43:02Z</time>
      </trkpt>
      <trkpt lat="48.08434" lon="2.30058">
        <ele>104</ele>
        <time>2013-03-20T02:43:20Z</time>
      </trkpt>
      <trkpt lat="48.08517" lon="2.30306">
        <ele>104</ele>
        <time>2013-03-20T02:43:44Z</time>
      </trkpt>
      <trkpt lat="48.0855" lon="2.30361">
        <ele>104</ele>
        <time>2013-03-20T02:43:52Z</time>
      </trkpt>
      <trkpt lat="48.08702" lon="2.30526">
        <ele>106</ele>
        <time>2013-03-20T02:44:21Z</time>
      </trkpt>
      <trkpt lat="48.0881" lon="2.30671">
        <ele>107</ele>
        <time>2013-03-20T02:44:43Z</time>
      </trkpt>
      <trkpt lat="48.0895" lon="2.30927">
        <ele>103</ele>
        <time>2013-03-20T02:45:12Z</time>
      </trkpt>
      <trkpt lat="48.08973" lon="2.30955">
        <ele>102</ele>
        <time>2013-03-20T02:45:16Z</time>
      </trkpt>
      <trkpt lat="48.08991" lon="2.30975">
        <ele>102</ele>
        <time>2013-03-20T02:45:19Z</time>
      </trkpt>
      <trkpt lat="48.09015" lon="2.30997">
        <ele>101</ele>
        <time>2013-03-20T02:45:23Z</time>
      </trkpt>
      <trkpt lat="48.09073" lon="2.31047">
        <ele>101</ele>
        <time>2013-03-20T02:45:32Z</time>
      </trkpt>
      <trkpt lat="48.09127" lon="2.31085">
        <ele>101</ele>
        <time>2013-03-20T02:45:40Z</time>
      </trkpt>
      <trkpt lat="48.09161" lon="2.31107">
        <ele>101</ele>
        <time>2013-03-20T02:45:45Z</time>
      </trkpt>
      <trkpt lat="48.09362" lon="2.3122">
        <ele>103</ele>
        <time>2013-03-20T02:46:18Z</time>
      </trkpt>
      <trkpt lat="48.0952" lon="2.31311">
        <ele>103</ele>
        <time>2013-03-20T02:46:41Z</time>
      </trkpt>
      <trkpt lat="48.09526" lon="2.31447">
        <ele>102</ele>
        <time>2013-03-20T02:46:53Z</time>
      </trkpt>
      <trkpt lat="48.09565" lon="2.3145">
        <ele>102</ele>
        <time>2013-03-20T02:46:58Z</time>
      </trkpt>
      <trkpt lat="48.09576" lon="2.31633">
        <ele>102</ele>
        <time>2013-03-20T02:47:15Z</time>
      </trkpt>
      <trkpt lat="48.09669" lon="2.31637">
        <ele>102</ele>
        <time>2013-03-20T02:47:27Z</time>
      </trkpt>
      <trkpt lat="48.09672" lon="2.31798">
        <ele>105</ele>
        <time>2013-03-20T02:47:49Z</time>
      </trkpt>
      <trkpt lat="48.0968" lon="2.31892">
        <ele>104</ele>
        <time>2013-03-20T02:47:57Z</time>
      </trkpt>
      <trkpt lat="48.09988" lon="2.31897">
        <ele>104</ele>
        <time>2013-03-20T02:48:38Z</time>
      </trkpt>
      <trkpt lat="48.10266" lon="2.3192">
        <ele>108</ele>
        <time>2013-03-20T02:49:25Z</time>
      </trkpt>
      <trkpt lat="48.10826" lon="2.32133">
        <ele>106</ele>
        <time>2013-03-20T02:50:42Z</time>
      </trkpt>
      <trkpt lat="48.11634" lon="2.32466">
        <ele>105</ele>
        <time>2013-03-20T02:52:34Z</time>
      </trkpt>
      <trkpt lat="48.13123" lon="2.33089">
        <ele>115</ele>
        <time>2013-03-20T02:56:25Z</time>
      </trkpt>
      <trkpt lat="48.13233" lon="2.33161">
        <ele>115</ele>
        <time>2013-03-20T02:56:41Z</time>
      </trkpt>
      <trkpt lat="48.13271" lon="2.33185">
        <ele>115</ele>
        <time>2013-03-20T02:56:48Z</time>
      </trkpt>
      <trkpt lat="48.13355" lon="2.33236">
        <ele>118</ele>
        <time>2013-03-20T02:57:05Z</time>
      </trkpt>
      <trkpt lat="48.13386" lon="2.33248">
        <ele>118</ele>
        <time>2013-03-20T02:57:10Z</time>
      </trkpt>
      <trkpt lat="48.13419" lon="2.33256">
        <ele>118</ele>
        <time>2013-03-20T02:57:15Z</time>
      </trkpt>
      <trkpt lat="48.13496" lon="2.33268">
        <ele>119</ele>
        <time>2013-03-20T02:57:27Z</time>
      </trkpt>
      <trkpt lat="48.13551" lon="2.33276">
        <ele>119</ele>
        <time>2013-03-20T02:57:34Z</time>
      </trkpt>
      <trkpt lat="48.13605" lon="2.33276">
        <ele>119</ele>
        <time>2013-03-20T02:57:41Z</time>
      </trkpt>
      <trkpt lat="48.13646" lon="2.33271">
        <ele>119</ele>
        <time>2013-03-20T02:57:47Z</time>
      </trkpt>
      <trkpt lat="48.13692" lon="2.33259">
        <ele>119</ele>
        <time>2013-03-20T02:57:53Z</time>
      </trkpt>
      <trkpt lat="48.13712" lon="2.3325">
        <ele>119</ele>
        <time>2013-03-20T02:57:56Z</time>
      </trkpt>
      <trkpt lat="48.13733" lon="2.33244">
        <ele>118</ele>
        <time>2013-03-20T02:57:59Z</time>
      </trkpt>
      <trkpt lat="48.13764" lon="2.33243">
        <ele>117</ele>
        <time>2013-03-20T02:58:03Z</time>
      </trkpt>
      <trkpt lat="48.13809" lon="2.33245">
        <ele>117</ele>
        <time>2013-03-20T02:58:09Z</time>
      </trkpt>
      <trkpt lat="48.13831" lon="2.33248">
        <ele>116</ele>
        <time>2013-03-20T02:58:12Z</time>
      </trkpt>
      <trkpt lat="48.13852" lon="2.33251">
        <ele>115</ele>
        <time>2013-03-20T02:58:15Z</time>
      </trkpt>
      <trkpt lat="48.13884" lon="2.33267">
        <ele>115</ele>
        <time>2013-03-20T02:58:19Z</time>
      </trkpt>
      <trkpt lat="48.1392" lon="2.33289">
        <ele>114</ele>
        <time>2013-03-20T02:58:24Z</time>
      </trkpt>
      <trkpt lat="48.13972" lon="2.33327">
        <ele>112</ele>
        <time>2013-03-20T02:58:32Z</time>
      </trkpt>
      <trkpt lat="48.14026" lon="2.33367">
        <ele>111</ele>
        <time>2013-03-20T02:58:40Z</time>
      </trkpt>
      <trkpt lat="48.1405" lon="2.33382">
        <ele>111</ele>
        <time>2013-03-20T02:58:45Z</time>
      </trkpt>
      <trkpt lat="48.14075" lon="2.33396">
        <ele>111</ele>
        <time>2013-03-20T02:58:49Z</time>
      </trkpt>
      <trkpt lat="48.14103" lon="2.33417">
        <ele>112</ele>
        <time>2013-03-20T02:58:55Z</time>
      </trkpt>
      <trkpt lat="48.14142" lon="2.33453">
        <ele>113</ele>
        <time>2013-03-20T02:59:02Z</time>
      </trkpt>
      <trkpt lat="48.14197" lon="2.33509">
        <ele>114</ele>
        <time>2013-03-20T02:59:15Z</time>
      </trkpt>
      <trkpt lat="48.14242" lon="2.33557">
        <ele>116</ele>
        <time>2013-03-20T02:59:26Z</time>
      </trkpt>
      <trkpt lat="48.14265" lon="2.33577">
        <ele>116</ele>
        <time>2013-03-20T02:59:29Z</time>
      </trkpt>
      <trkpt lat="48.14294" lon="2.33601">
        <ele>116</ele>
        <time>2013-03-20T02:59:34Z</time>
      </trkpt>
      <trkpt lat="48.14313" lon="2.33619">
        <ele>116</ele>
        <time>2013-03-20T02:59:37Z</time>
      </trkpt>
      <trkpt lat="48.14342" lon="2.3365">
        <ele>116</ele>
        <time>2013-03-20T02:59:42Z</time>
      </trkpt>
      <trkpt lat="48.14378" lon="2.33692">
        <ele>115</ele>
        <time>2013-03-20T02:59:48Z</time>
      </trkpt>
      <trkpt lat="48.14399" lon="2.3371">
        <ele>115</ele>
        <time>2013-03-20T02:59:51Z</time>
      </trkpt>
      <trkpt lat="48.14429" lon="2.33732">
        <ele>115</ele>
        <time>2013-03-20T02:59:55Z</time>
      </trkpt>
      <trkpt lat="48.14462" lon="2.33753">
        <ele>115</ele>
        <time>2013-03-20T03:00:02Z</time>
      </trkpt>
      <trkpt lat="48.14504" lon="2.33778">
        <ele>116</ele>
        <time>2013-03-20T03:00:11Z</time>
      </trkpt>
      <trkpt lat="48.14543" lon="2.338">
        <ele>118</ele>
        <time>2013-03-20T03:00:19Z</time>
      </trkpt>
      <trkpt lat="48.14577" lon="2.33815">
        <ele>118</ele>
        <time>2013-03-20T03:00:24Z</time>
      </trkpt>
      <trkpt lat="48.14603" lon="2.33825">
        <ele>118</ele>
        <time>2013-03-20T03:00:28Z</time>
      </trkpt>
      <trkpt lat="48.14623" lon="2.3383">
        <ele>118</ele>
        <time>2013-03-20T03:00:31Z</time>
      </trkpt>
      <trkpt lat="48.1467" lon="2.33844">
        <ele>119</ele>
        <time>2013-03-20T03:00:39Z</time>
      </trkpt>
      <trkpt lat="48.14698" lon="2.33855">
        <ele>119</ele>
        <time>2013-03-20T03:00:43Z</time>
      </trkpt>
      <trkpt lat="48.14717" lon="2.33867">
        <ele>119</ele>
        <time>2013-03-20T03:00:45Z</time>
      </trkpt>
      <trkpt lat="48.14757" lon="2.33898">
        <ele>119</ele>
        <time>2013-03-20T03:00:51Z</time>
      </trkpt>
      <trkpt lat="48.14787" lon="2.33923">
        <ele>118</ele>
        <time>2013-03-20T03:00:56Z</time>
      </trkpt>
      <trkpt lat="48.14811" lon="2.33941">
        <ele>118</ele>
        <time>2013-03-20T03:01:00Z</time>
      </trkpt>
      <trkpt lat="48.14831" lon="2.33953">
        <ele>118</ele>
        <time>2013-03-20T03:01:03Z</time>
      </trkpt>
      <trkpt lat="48.14854" lon="2.33966">
        <ele>118</ele>
        <time>2013-03-20T03:01:06Z</time>
      </trkpt>
      <trkpt lat="48.14877" lon="2.33976">
        <ele>117</ele>
        <time>2013-03-20T03:01:09Z</time>
      </trkpt>
      <trkpt lat="48.14922" lon="2.3399">
        <ele>116</ele>
        <time>2013-03-20T03:01:15Z</time>
      </trkpt>
      <trkpt lat="48.15068" lon="2.34037">
        <ele>113</ele>
        <time>2013-03-20T03:01:35Z</time>
      </trkpt>
      <trkpt lat="48.15091" lon="2.34045">
        <ele>112</ele>
        <time>2013-03-20T03:01:38Z</time>
      </trkpt>
      <trkpt lat="48.15111" lon="2.34058">
        <ele>111</ele>
        <time>2013-03-20T03:01:41Z</time>
      </trkpt>
      <trkpt lat="48.1516" lon="2.34104">
        <ele>110</ele>
        <time>2013-03-20T03:01:49Z</time>
      </trkpt>
      <trkpt lat="48.15202" lon="2.34147">
        <ele>109</ele>
        <time>2013-03-20T03:01:56Z</time>
      </trkpt>
      <trkpt lat="48.15217" lon="2.3416">
        <ele>108</ele>
        <time>2013-03-20T03:01:58Z</time>
      </trkpt>
      <trkpt lat="48.15271" lon="2.34198">
        <ele>108</ele>
        <time>2013-03-20T03:02:06Z</time>
      </trkpt>
      <trkpt lat="48.15286" lon="2.34212">
        <ele>108</ele>
        <time>2013-03-20T03:02:09Z</time>
      </trkpt>
      <trkpt lat="48.15305" lon="2.34237">
        <ele>108</ele>
        <time>2013-03-20T03:02:13Z</time>
      </trkpt>
      <trkpt lat="48.1534" lon="2.34289">
        <ele>109</ele>
        <time>2013-03-20T03:02:21Z</time>
      </trkpt>
      <trkpt lat="48.15357" lon="2.3431">
        <ele>109</ele>
        <time>2013-03-20T03:02:24Z</time>
      </trkpt>
      <trkpt lat="48.15374" lon="2.34327">
        <ele>109</ele>
        <time>2013-03-20T03:02:27Z</time>
      </trkpt>
      <trkpt lat="48.15395" lon="2.3434">
        <ele>109</ele>
        <time>2013-03-20T03:02:31Z</time>
      </trkpt>
      <trkpt lat="48.15409" lon="2.34348">
        <ele>109</ele>
        <time>2013-03-20T03:02:33Z</time>
      </trkpt>
      <trkpt lat="48.15427" lon="2.34349">
        <ele>110</ele>
        <time>2013-03-20T03:02:36Z</time>
      </trkpt>
      <trkpt lat="48.15454" lon="2.34345">
        <ele>110</ele>
        <time>2013-03-20T03:02:41Z</time>
      </trkpt>
      <trkpt lat="48.15497" lon="2.34338">
        <ele>111</ele>
        <time>2013-03-20T03:02:48Z</time>
      </trkpt>
      <trkpt lat="48.15541" lon="2.34328">
        <ele>112</ele>
        <time>2013-03-20T03:02:56Z</time>
      </trkpt>
      <trkpt lat="48.15591" lon="2.34307">
        <ele>112</ele>
        <time>2013-03-20T03:03:03Z</time>
      </trkpt>
      <trkpt lat="48.15612" lon="2.34295">
        <ele>112</ele>
        <time>2013-03-20T03:03:06Z</time>
      </trkpt>
      <trkpt lat="48.15648" lon="2.34272">
        <ele>112</ele>
        <time>2013-03-20T03:03:11Z</time>
      </trkpt>
      <trkpt lat="48.15709" lon="2.34235">
        <ele>110</ele>
        <time>2013-03-20T03:03:20Z</time>
      </trkpt>
      <trkpt lat="48.15801" lon="2.34183">
        <ele>108</ele>
        <time>2013-03-20T03:03:33Z</time>
      </trkpt>
      <trkpt lat="48.15838" lon="2.34165">
        <ele>107</ele>
        <time>2013-03-20T03:03:39Z</time>
      </trkpt>
      <trkpt lat="48.15853" lon="2.3416">
        <ele>107</ele>
        <time>2013-03-20T03:03:41Z</time>
      </trkpt>
      <trkpt lat="48.1587" lon="2.34162">
        <ele>107</ele>
        <time>2013-03-20T03:03:43Z</time>
      </trkpt>
      <trkpt lat="48.15876" lon="2.34137">
        <ele>107</ele>
        <time>2013-03-20T03:03:45Z</time>
      </trkpt>
      <trkpt lat="48.15889" lon="2.34112">
        <ele>107</ele>
        <time>2013-03-20T03:03:48Z</time>
      </trkpt>
      <trkpt lat="48.15906" lon="2.34076">
        <ele>105</ele>
        <time>2013-03-20T03:03:52Z</time>
      </trkpt>
      <trkpt lat="48.15918" lon="2.34043">
        <ele>104</ele>
        <time>2013-03-20T03:03:55Z</time>
      </trkpt>
      <trkpt lat="48.15925" lon="2.34013">
        <ele>104</ele>
        <time>2013-03-20T03:03:58Z</time>
      </trkpt>
      <trkpt lat="48.15935" lon="2.33937">
        <ele>102</ele>
        <time>2013-03-20T03:04:05Z</time>
      </trkpt>
      <trkpt lat="48.15945" lon="2.33882">
        <ele>99</ele>
        <time>2013-03-20T03:04:10Z</time>
      </trkpt>
      <trkpt lat="48.15953" lon="2.33858">
        <ele>97</ele>
        <time>2013-03-20T03:04:13Z</time>
      </trkpt>
      <trkpt lat="48.15961" lon="2.33838">
        <ele>96</ele>
        <time>2013-03-20T03:04:15Z</time>
      </trkpt>
      <trkpt lat="48.15974" lon="2.33822">
        <ele>95</ele>
        <time>2013-03-20T03:04:17Z</time>
      </trkpt>
      <trkpt lat="48.15986" lon="2.33813">
        <ele>94</ele>
        <time>2013-03-20T03:04:19Z</time>
      </trkpt>
      <trkpt lat="48.16014" lon="2.33811">
        <ele>93</ele>
        <time>2013-03-20T03:04:22Z</time>
      </trkpt>
      <trkpt lat="48.16019" lon="2.33816">
        <ele>93</ele>
        <time>2013-03-20T03:04:23Z</time>
      </trkpt>
      <trkpt lat="48.16024" lon="2.33813">
        <ele>93</ele>
        <time>2013-03-20T03:04:24Z</time>
      </trkpt>
      <trkpt lat="48.16029" lon="2.338">
        <ele>93</ele>
        <time>2013-03-20T03:04:25Z</time>
      </trkpt>
      <trkpt lat="48.1606" lon="2.33727">
        <ele>93</ele>
        <time>2013-03-20T03:04:33Z</time>
      </trkpt>
      <trkpt lat="48.16076" lon="2.33666">
        <ele>94</ele>
        <time>2013-03-20T03:04:41Z</time>
      </trkpt>
      <trkpt lat="48.16078" lon="2.33642">
        <ele>94</ele>
        <time>2013-03-20T03:04:44Z</time>
      </trkpt>
      <trkpt lat="48.16083" lon="2.33631">
        <ele>94</ele>
        <time>2013-03-20T03:04:46Z</time>
      </trkpt>
      <trkpt lat="48.1609" lon="2.3363">
        <ele>94</ele>
        <time>2013-03-20T03:04:47Z</time>
      </trkpt>
      <trkpt lat="48.161" lon="2.33633">
        <ele>94</ele>
        <time>2013-03-20T03:04:49Z</time>
      </trkpt>
      <trkpt lat="48.1613" lon="2.33643">
        <ele>95</ele>
        <time>2013-03-20T03:04:55Z</time>
      </trkpt>
      <trkpt lat="48.16143" lon="2.33644">
        <ele>96</ele>
        <time>2013-03-20T03:04:58Z</time>
      </trkpt>
      <trkpt lat="48.16152" lon="2.33636">
        <ele>96</ele>
        <time>2013-03-20T03:05:00Z</time>
      </trkpt>
      <trkpt lat="48.16158" lon="2.33623">
        <ele>96</ele>
        <time>2013-03-20T03:05:03Z</time>
      </trkpt>
      <trkpt lat="48.16159" lon="2.33596">
        <ele>97</ele>
        <time>2013-03-20T03:05:07Z</time>
      </trkpt>
      <trkpt lat="48.16155" lon="2.33565">
        <ele>98</ele>
        <time>2013-03-20T03:05:12Z</time>
      </trkpt>
      <trkpt lat="48.1615" lon="2.33522">
        <ele>100</ele>
        <time>2013-03-20T03:05:19Z</time>
      </trkpt>
    </trkseg>
  </trk>
</gpx>